PWSweather.com
Personal Weather Stations
Station Observations
SONYA
Sergiev PosadRU

Sergiev PosadRU

Lat: 56.28148651, Lon: 38.05462646

Elevation: 741

Station Type: Fine offset WH1091

High Low Average
Temperature 74.7°F23.7°C 48.9°F9.4°C 64.0°F17.8°C
Dew Point 58.0°F14.4°C 48.1°F8.9°C 54.2°F12.3°C
Winds 9.8 mph 15.8 kmh Calm Calm 1.0 mph SW1.6 kmh SW
Wind Gusts 17.4 mph28.0 kmh -- 3.0 mph4.8 kmh
Humidity 99% 42% 66%
Pressure 29.92 in1013.2 mb 29.79 in1008.8 mb -
Precipitation 0.01 in0.3 mm - -
Hour Temp Dew Point Humidity Winds Wind Gusts Pressure Precip Precip Rate Daily Precip Total
12:01 AM 56.7°F13.7°C 55.8°F13.2°C 96% Calm Calm -- 29.80 in1009.1 mb 0.00 in0.0 mm 0.00 in0.0 mm 0.01 in0.3 mm
12:02 AM 56.7°F13.7°C 55.8°F13.2°C 96% Calm Calm -- 29.80 in1009.1 mb 0.00 in0.0 mm 0.00 in0.0 mm 0.01 in0.3 mm
12:07 AM 56.5°F13.6°C 55.8°F13.2°C 97% Calm Calm -- 29.81 in1009.5 mb 0.00 in0.0 mm 0.00 in0.0 mm 0.01 in0.3 mm
12:12 AM 56.3°F13.5°C 55.7°F13.2°C 97% Calm Calm -- 29.80 in1009.1 mb 0.00 in0.0 mm 0.00 in0.0 mm 0.01 in0.3 mm
12:16 AM 56.3°F13.5°C 55.7°F13.2°C 97% Calm Calm -- 29.80 in1009.1 mb 0.00 in0.0 mm 0.00 in0.0 mm 0.01 in0.3 mm
12:17 AM 56.3°F13.5°C 55.7°F13.2°C 97% Calm Calm -- 29.80 in1009.1 mb 0.00 in0.0 mm 0.00 in0.0 mm 0.01 in0.3 mm
12:21 AM 56.1°F13.4°C 55.5°F13.1°C 97% Calm Calm -- 29.80 in1009.1 mb 0.00 in0.0 mm 0.00 in0.0 mm 0.01 in0.3 mm
12:22 AM 55.9°F13.3°C 55.3°F12.9°C 97% Calm Calm -- 29.80 in1009.1 mb 0.00 in0.0 mm 0.00 in0.0 mm 0.01 in0.3 mm
12:27 AM 55.8°F13.2°C 55.1°F12.8°C 97% Calm Calm -- 29.80 in1009.1 mb 0.00 in0.0 mm 0.00 in0.0 mm 0.01 in0.3 mm
12:32 AM 55.6°F13.1°C 54.9°F12.7°C 97% Calm Calm -- 29.80 in1009.1 mb 0.00 in0.0 mm 0.00 in0.0 mm 0.01 in0.3 mm
12:36 AM 55.6°F13.1°C 55.2°F12.9°C 98% Calm Calm -- 29.80 in1009.1 mb 0.00 in0.0 mm 0.00 in0.0 mm 0.01 in0.3 mm
12:37 AM 55.6°F13.1°C 55.2°F12.9°C 98% Calm Calm -- 29.80 in1009.1 mb 0.00 in0.0 mm 0.00 in0.0 mm 0.01 in0.3 mm
12:41 AM 55.4°F13.0°C 55.0°F12.8°C 98% Calm Calm -- 29.80 in1009.1 mb 0.00 in0.0 mm 0.00 in0.0 mm 0.01 in0.3 mm
12:42 AM 55.4°F13.0°C 55.0°F12.8°C 98% Calm Calm -- 29.80 in1009.1 mb 0.00 in0.0 mm 0.00 in0.0 mm 0.01 in0.3 mm
12:47 AM 55.2°F12.9°C 54.6°F12.6°C 97% Calm Calm -- 29.80 in1009.1 mb 0.00 in0.0 mm 0.00 in0.0 mm 0.01 in0.3 mm
12:52 AM 55.0°F12.8°C 54.4°F12.4°C 97% Calm Calm -- 29.80 in1009.1 mb 0.00 in0.0 mm 0.00 in0.0 mm 0.01 in0.3 mm
12:56 AM 55.0°F12.8°C 54.4°F12.4°C 97% Calm Calm -- 29.80 in1009.1 mb 0.00 in0.0 mm 0.00 in0.0 mm 0.01 in0.3 mm
12:57 AM 55.0°F12.8°C 54.4°F12.4°C 97% Calm Calm -- 29.80 in1009.1 mb 0.00 in0.0 mm 0.00 in0.0 mm 0.01 in0.3 mm
01:01 AM 54.7°F12.6°C 54.0°F12.2°C 97% Calm Calm -- 29.80 in1009.1 mb 0.00 in0.0 mm 0.00 in0.0 mm 0.01 in0.3 mm
01:02 AM 54.7°F12.6°C 54.0°F12.2°C 97% Calm Calm -- 29.80 in1009.1 mb 0.00 in0.0 mm 0.00 in0.0 mm 0.01 in0.3 mm
01:07 AM 54.5°F12.5°C 53.9°F12.2°C 97% Calm Calm -- 29.80 in1009.1 mb 0.00 in0.0 mm 0.00 in0.0 mm 0.01 in0.3 mm
01:12 AM 54.5°F12.5°C 53.9°F12.2°C 97% Calm Calm -- 29.80 in1009.1 mb 0.00 in0.0 mm 0.00 in0.0 mm 0.01 in0.3 mm
01:16 AM 54.5°F12.5°C 53.9°F12.2°C 97% Calm Calm -- 29.80 in1009.1 mb 0.00 in0.0 mm 0.00 in0.0 mm 0.01 in0.3 mm
01:17 AM 54.5°F12.5°C 53.9°F12.2°C 97% Calm Calm -- 29.80 in1009.1 mb 0.00 in0.0 mm 0.00 in0.0 mm 0.01 in0.3 mm
01:21 AM 54.1°F12.3°C 53.5°F11.9°C 97% Calm Calm -- 29.80 in1009.1 mb 0.00 in0.0 mm 0.00 in0.0 mm 0.01 in0.3 mm
01:22 AM 54.1°F12.3°C 53.5°F11.9°C 97% Calm Calm -- 29.79 in1008.8 mb 0.00 in0.0 mm 0.00 in0.0 mm 0.01 in0.3 mm
01:27 AM 54.1°F12.3°C 53.5°F11.9°C 97% Calm Calm -- 29.80 in1009.1 mb 0.00 in0.0 mm 0.00 in0.0 mm 0.01 in0.3 mm
01:32 AM 54.0°F12.2°C 53.3°F11.8°C 97% Calm Calm -- 29.80 in1009.1 mb 0.00 in0.0 mm 0.00 in0.0 mm 0.01 in0.3 mm
01:36 AM 53.6°F12.0°C 53.0°F11.7°C 97% Calm Calm -- 29.79 in1008.8 mb 0.00 in0.0 mm 0.00 in0.0 mm 0.01 in0.3 mm
01:37 AM 53.8°F12.1°C 53.2°F11.8°C 97% Calm Calm -- 29.79 in1008.8 mb 0.00 in0.0 mm 0.00 in0.0 mm 0.01 in0.3 mm
01:41 AM 53.6°F12.0°C 53.0°F11.7°C 97% Calm Calm -- 29.80 in1009.1 mb 0.00 in0.0 mm 0.00 in0.0 mm 0.01 in0.3 mm
01:42 AM 53.6°F12.0°C 53.0°F11.7°C 97% Calm Calm -- 29.80 in1009.1 mb 0.00 in0.0 mm 0.00 in0.0 mm 0.01 in0.3 mm
01:47 AM 53.6°F12.0°C 53.0°F11.7°C 97% Calm Calm -- 29.79 in1008.8 mb 0.00 in0.0 mm 0.00 in0.0 mm 0.01 in0.3 mm
01:52 AM 53.4°F11.9°C 53.0°F11.7°C 98% Calm Calm -- 29.80 in1009.1 mb 0.00 in0.0 mm 0.00 in0.0 mm 0.01 in0.3 mm
01:56 AM 53.2°F11.8°C 52.8°F11.6°C 98% Calm Calm -- 29.80 in1009.1 mb 0.00 in0.0 mm 0.00 in0.0 mm 0.01 in0.3 mm
01:57 AM 53.2°F11.8°C 52.8°F11.6°C 98% Calm Calm -- 29.80 in1009.1 mb 0.00 in0.0 mm 0.00 in0.0 mm 0.01 in0.3 mm
02:01 AM 53.2°F11.8°C 52.8°F11.6°C 98% Calm Calm -- 29.80 in1009.1 mb 0.00 in0.0 mm 0.00 in0.0 mm 0.01 in0.3 mm
02:02 AM 53.2°F11.8°C 52.8°F11.6°C 98% Calm Calm -- 29.79 in1008.8 mb 0.00 in0.0 mm 0.00 in0.0 mm 0.01 in0.3 mm
02:07 AM 53.2°F11.8°C 52.8°F11.6°C 98% Calm Calm -- 29.80 in1009.1 mb 0.00 in0.0 mm 0.00 in0.0 mm 0.01 in0.3 mm
02:12 AM 53.1°F11.7°C 52.6°F11.4°C 98% Calm Calm -- 29.79 in1008.8 mb 0.00 in0.0 mm 0.00 in0.0 mm 0.01 in0.3 mm
02:16 AM 52.9°F11.6°C 52.5°F11.4°C 98% Calm Calm -- 29.80 in1009.1 mb 0.00 in0.0 mm 0.00 in0.0 mm 0.01 in0.3 mm
02:17 AM 52.9°F11.6°C 52.5°F11.4°C 98% Calm Calm -- 29.80 in1009.1 mb 0.00 in0.0 mm 0.00 in0.0 mm 0.01 in0.3 mm
02:21 AM 52.9°F11.6°C 52.5°F11.4°C 98% Calm Calm -- 29.80 in1009.1 mb 0.00 in0.0 mm 0.00 in0.0 mm 0.01 in0.3 mm
02:22 AM 52.9°F11.6°C 52.5°F11.4°C 98% Calm Calm -- 29.79 in1008.8 mb 0.00 in0.0 mm 0.00 in0.0 mm 0.01 in0.3 mm
02:27 AM 52.9°F11.6°C 52.5°F11.4°C 98% Calm Calm -- 29.78 in1008.5 mb 0.00 in0.0 mm 0.00 in0.0 mm 0.01 in0.3 mm
02:32 AM 52.7°F11.5°C 52.3°F11.3°C 98% Calm Calm -- 29.79 in1008.8 mb 0.00 in0.0 mm 0.00 in0.0 mm 0.01 in0.3 mm
02:36 AM 52.5°F11.4°C 52.1°F11.2°C 98% Calm Calm -- 29.79 in1008.8 mb 0.00 in0.0 mm 0.00 in0.0 mm 0.01 in0.3 mm
02:37 AM 52.5°F11.4°C 52.1°F11.2°C 98% Calm Calm -- 29.79 in1008.8 mb 0.00 in0.0 mm 0.00 in0.0 mm 0.01 in0.3 mm
02:41 AM 52.3°F11.3°C 51.9°F11.1°C 98% Calm Calm -- 29.79 in1008.8 mb 0.00 in0.0 mm 0.00 in0.0 mm 0.01 in0.3 mm
02:42 AM 52.3°F11.3°C 51.9°F11.1°C 98% Calm Calm -- 29.79 in1008.8 mb 0.00 in0.0 mm 0.00 in0.0 mm 0.01 in0.3 mm
02:47 AM 52.2°F11.2°C 51.7°F10.9°C 98% Calm Calm -- 29.79 in1008.8 mb 0.00 in0.0 mm 0.00 in0.0 mm 0.01 in0.3 mm
02:52 AM 52.3°F11.3°C 51.9°F11.1°C 98% Calm Calm -- 29.80 in1009.1 mb 0.00 in0.0 mm 0.00 in0.0 mm 0.01 in0.3 mm
02:56 AM 52.3°F11.3°C 51.9°F11.1°C 98% Calm Calm -- 29.80 in1009.1 mb 0.00 in0.0 mm 0.00 in0.0 mm 0.01 in0.3 mm
02:57 AM 52.3°F11.3°C 51.9°F11.1°C 98% Calm Calm -- 29.80 in1009.1 mb 0.00 in0.0 mm 0.00 in0.0 mm 0.01 in0.3 mm
03:01 AM 52.9°F11.6°C 52.5°F11.4°C 98% Calm Calm -- 29.79 in1008.8 mb 0.00 in0.0 mm 0.00 in0.0 mm 0.01 in0.3 mm
03:02 AM 52.9°F11.6°C 52.5°F11.4°C 98% Calm Calm -- 29.80 in1009.1 mb 0.00 in0.0 mm 0.00 in0.0 mm 0.01 in0.3 mm
03:07 AM 53.2°F11.8°C 52.8°F11.6°C 98% Calm Calm -- 29.80 in1009.1 mb 0.00 in0.0 mm 0.00 in0.0 mm 0.01 in0.3 mm
03:12 AM 53.2°F11.8°C 52.8°F11.6°C 98% Calm Calm -- 29.80 in1009.1 mb 0.00 in0.0 mm 0.00 in0.0 mm 0.01 in0.3 mm
03:16 AM 53.6°F12.0°C 53.0°F11.7°C 97% Calm Calm -- 29.80 in1009.1 mb 0.00 in0.0 mm 0.00 in0.0 mm 0.01 in0.3 mm
03:17 AM 53.6°F12.0°C 53.0°F11.7°C 97% Calm Calm -- 29.80 in1009.1 mb 0.00 in0.0 mm 0.00 in0.0 mm 0.01 in0.3 mm
03:21 AM 54.0°F12.2°C 53.3°F11.8°C 97% 0.7 mph SW1.1 kmh SW 2.2 mph3.5 kmh 29.80 in1009.1 mb 0.00 in0.0 mm 0.00 in0.0 mm 0.01 in0.3 mm
03:22 AM 54.0°F12.2°C 53.3°F11.8°C 97% 0.7 mph SW1.1 kmh SW 2.2 mph3.5 kmh 29.80 in1009.1 mb 0.00 in0.0 mm 0.00 in0.0 mm 0.01 in0.3 mm
03:27 AM 54.1°F12.3°C 53.5°F11.9°C 97% Calm Calm -- 29.80 in1009.1 mb 0.00 in0.0 mm 0.00 in0.0 mm 0.01 in0.3 mm
03:32 AM 54.0°F12.2°C 53.3°F11.8°C 97% Calm Calm 0.7 mph1.1 kmh 29.80 in1009.1 mb 0.00 in0.0 mm 0.00 in0.0 mm 0.01 in0.3 mm
03:36 AM 54.0°F12.2°C 53.3°F11.8°C 97% Calm Calm 1.6 mph2.6 kmh 29.80 in1009.1 mb 0.00 in0.0 mm 0.00 in0.0 mm 0.01 in0.3 mm
03:37 AM 54.0°F12.2°C 53.3°F11.8°C 97% Calm Calm -- 29.80 in1009.1 mb 0.00 in0.0 mm 0.00 in0.0 mm 0.01 in0.3 mm
03:41 AM 54.1°F12.3°C 53.5°F11.9°C 97% Calm Calm -- 29.80 in1009.1 mb 0.00 in0.0 mm 0.00 in0.0 mm 0.01 in0.3 mm
03:42 AM 54.0°F12.2°C 53.3°F11.8°C 97% Calm Calm 1.6 mph2.6 kmh 29.80 in1009.1 mb 0.00 in0.0 mm 0.00 in0.0 mm 0.01 in0.3 mm
03:47 AM 54.1°F12.3°C 53.5°F11.9°C 97% Calm Calm 1.6 mph2.6 kmh 29.80 in1009.1 mb 0.00 in0.0 mm 0.00 in0.0 mm 0.01 in0.3 mm
03:52 AM 54.1°F12.3°C 53.5°F11.9°C 97% Calm Calm -- 29.80 in1009.1 mb 0.00 in0.0 mm 0.00 in0.0 mm 0.01 in0.3 mm
03:56 AM 54.0°F12.2°C 53.3°F11.8°C 97% Calm Calm -- 29.80 in1009.1 mb 0.00 in0.0 mm 0.00 in0.0 mm 0.01 in0.3 mm
03:57 AM 54.0°F12.2°C 53.3°F11.8°C 97% Calm Calm 0.7 mph1.1 kmh 29.80 in1009.1 mb 0.00 in0.0 mm 0.00 in0.0 mm 0.01 in0.3 mm
04:01 AM 53.8°F12.1°C 53.2°F11.8°C 97% Calm Calm -- 29.80 in1009.1 mb 0.00 in0.0 mm 0.00 in0.0 mm 0.01 in0.3 mm
04:02 AM 53.8°F12.1°C 53.2°F11.8°C 97% Calm Calm -- 29.80 in1009.1 mb 0.00 in0.0 mm 0.00 in0.0 mm 0.01 in0.3 mm
04:07 AM 53.6°F12.0°C 53.0°F11.7°C 97% Calm Calm -- 29.80 in1009.1 mb 0.00 in0.0 mm 0.00 in0.0 mm 0.01 in0.3 mm
04:12 AM 53.6°F12.0°C 53.0°F11.7°C 97% Calm Calm -- 29.81 in1009.5 mb 0.00 in0.0 mm 0.00 in0.0 mm 0.01 in0.3 mm
04:16 AM 53.6°F12.0°C 53.0°F11.7°C 97% Calm Calm 0.7 mph1.1 kmh 29.80 in1009.1 mb 0.00 in0.0 mm 0.00 in0.0 mm 0.01 in0.3 mm
04:17 AM 53.6°F12.0°C 53.0°F11.7°C 97% Calm Calm -- 29.80 in1009.1 mb 0.00 in0.0 mm 0.00 in0.0 mm 0.01 in0.3 mm
04:21 AM 53.8°F12.1°C 53.2°F11.8°C 97% Calm Calm -- 29.81 in1009.5 mb 0.00 in0.0 mm 0.00 in0.0 mm 0.01 in0.3 mm
04:22 AM 53.8°F12.1°C 53.2°F11.8°C 97% Calm Calm 0.7 mph1.1 kmh 29.81 in1009.5 mb 0.00 in0.0 mm 0.00 in0.0 mm 0.01 in0.3 mm
04:27 AM 54.0°F12.2°C 53.3°F11.8°C 97% Calm Calm 0.7 mph1.1 kmh 29.81 in1009.5 mb 0.00 in0.0 mm 0.00 in0.0 mm 0.01 in0.3 mm
04:32 AM 54.1°F12.3°C 53.5°F11.9°C 97% Calm Calm -- 29.81 in1009.5 mb 0.00 in0.0 mm 0.00 in0.0 mm 0.01 in0.3 mm
04:36 AM 54.3°F12.4°C 53.7°F12.1°C 97% Calm Calm 0.7 mph1.1 kmh 29.81 in1009.5 mb 0.00 in0.0 mm 0.00 in0.0 mm 0.01 in0.3 mm
04:37 AM 54.3°F12.4°C 53.7°F12.1°C 97% Calm Calm 1.6 mph2.6 kmh 29.81 in1009.5 mb 0.00 in0.0 mm 0.00 in0.0 mm 0.01 in0.3 mm
04:41 AM 54.5°F12.5°C 53.9°F12.2°C 97% Calm Calm -- 29.81 in1009.5 mb 0.00 in0.0 mm 0.00 in0.0 mm 0.01 in0.3 mm
04:42 AM 54.5°F12.5°C 53.9°F12.2°C 97% Calm Calm -- 29.81 in1009.5 mb 0.00 in0.0 mm 0.00 in0.0 mm 0.01 in0.3 mm
04:47 AM 54.7°F12.6°C 54.0°F12.2°C 97% Calm Calm -- 29.81 in1009.5 mb 0.00 in0.0 mm 0.00 in0.0 mm 0.01 in0.3 mm
04:52 AM 54.9°F12.7°C 54.2°F12.3°C 97% Calm Calm 2.2 mph3.5 kmh 29.81 in1009.5 mb 0.00 in0.0 mm 0.00 in0.0 mm 0.01 in0.3 mm
04:56 AM 55.0°F12.8°C 54.4°F12.4°C 97% Calm Calm -- 29.81 in1009.5 mb 0.00 in0.0 mm 0.00 in0.0 mm 0.01 in0.3 mm
04:57 AM 55.0°F12.8°C 54.4°F12.4°C 97% Calm Calm -- 29.81 in1009.5 mb 0.00 in0.0 mm 0.00 in0.0 mm 0.01 in0.3 mm
05:01 AM 55.2°F12.9°C 54.6°F12.6°C 97% Calm Calm -- 29.81 in1009.5 mb 0.00 in0.0 mm 0.00 in0.0 mm 0.01 in0.3 mm
05:02 AM 55.2°F12.9°C 54.6°F12.6°C 97% Calm Calm -- 29.81 in1009.5 mb 0.00 in0.0 mm 0.00 in0.0 mm 0.01 in0.3 mm
05:07 AM 55.6°F13.1°C 55.4°F13.0°C 99% Calm Calm -- 29.81 in1009.5 mb 0.00 in0.0 mm 0.00 in0.0 mm 0.01 in0.3 mm
05:12 AM 56.3°F13.5°C 56.1°F13.4°C 99% Calm Calm -- 29.80 in1009.1 mb 0.00 in0.0 mm 0.00 in0.0 mm 0.01 in0.3 mm
05:16 AM 57.0°F13.9°C 56.8°F13.8°C 99% 0.7 mph SW1.1 kmh SW 1.6 mph2.6 kmh 29.80 in1009.1 mb 0.00 in0.0 mm 0.00 in0.0 mm 0.01 in0.3 mm
05:17 AM 57.0°F13.9°C 56.8°F13.8°C 99% Calm Calm 1.6 mph2.6 kmh 29.80 in1009.1 mb 0.00 in0.0 mm 0.00 in0.0 mm 0.01 in0.3 mm
05:21 AM 57.2°F14.0°C 56.3°F13.5°C 96% Calm Calm 0.7 mph1.1 kmh 29.81 in1009.5 mb 0.00 in0.0 mm 0.00 in0.0 mm 0.01 in0.3 mm
05:22 AM 57.2°F14.0°C 56.3°F13.5°C 96% 0.7 mph S1.1 kmh S 1.6 mph2.6 kmh 29.81 in1009.5 mb 0.00 in0.0 mm 0.00 in0.0 mm 0.01 in0.3 mm
05:27 AM 57.6°F14.2°C 56.0°F13.3°C 93% Calm Calm 3.1 mph5.0 kmh 29.80 in1009.1 mb 0.00 in0.0 mm 0.00 in0.0 mm 0.01 in0.3 mm
05:32 AM 57.7°F14.3°C 55.7°F13.2°C 91% Calm Calm -- 29.81 in1009.5 mb 0.00 in0.0 mm 0.00 in0.0 mm 0.01 in0.3 mm
05:36 AM 57.9°F14.4°C 55.0°F12.8°C 87% Calm Calm 0.7 mph1.1 kmh 29.81 in1009.5 mb 0.00 in0.0 mm 0.00 in0.0 mm 0.01 in0.3 mm
05:37 AM 57.9°F14.4°C 55.2°F12.9°C 88% Calm Calm -- 29.81 in1009.5 mb 0.00 in0.0 mm 0.00 in0.0 mm 0.01 in0.3 mm
05:41 AM 58.5°F14.7°C 55.0°F12.8°C 85% Calm Calm 1.6 mph2.6 kmh 29.80 in1009.1 mb 0.00 in0.0 mm 0.00 in0.0 mm 0.01 in0.3 mm
05:42 AM 58.5°F14.7°C 55.0°F12.8°C 85% 0.7 mph SW1.1 kmh SW 3.1 mph5.0 kmh 29.81 in1009.5 mb 0.00 in0.0 mm 0.00 in0.0 mm 0.01 in0.3 mm
05:47 AM 58.8°F14.9°C 55.1°F12.8°C 84% Calm Calm 1.6 mph2.6 kmh 29.80 in1009.1 mb 0.00 in0.0 mm 0.00 in0.0 mm 0.01 in0.3 mm
05:52 AM 58.8°F14.9°C 54.4°F12.4°C 81% 0.7 mph SW1.1 kmh SW 2.2 mph3.5 kmh 29.81 in1009.5 mb 0.00 in0.0 mm 0.00 in0.0 mm 0.01 in0.3 mm
05:56 AM 59.2°F15.1°C 54.2°F12.3°C 79% 0.7 mph SW1.1 kmh SW 2.2 mph3.5 kmh 29.81 in1009.5 mb 0.00 in0.0 mm 0.00 in0.0 mm 0.01 in0.3 mm
05:57 AM 59.2°F15.1°C 54.2°F12.3°C 79% Calm Calm 0.7 mph1.1 kmh 29.81 in1009.5 mb 0.00 in0.0 mm 0.00 in0.0 mm 0.01 in0.3 mm
06:01 AM 59.2°F15.1°C 53.9°F12.2°C 78% Calm Calm 0.7 mph1.1 kmh 29.81 in1009.5 mb 0.00 in0.0 mm 0.00 in0.0 mm 0.01 in0.3 mm
06:02 AM 59.2°F15.1°C 53.9°F12.2°C 78% Calm Calm 0.7 mph1.1 kmh 29.81 in1009.5 mb 0.00 in0.0 mm 0.00 in0.0 mm 0.01 in0.3 mm
06:07 AM 59.7°F15.4°C 54.2°F12.3°C 77% Calm Calm 0.7 mph1.1 kmh 29.81 in1009.5 mb 0.00 in0.0 mm 0.00 in0.0 mm 0.01 in0.3 mm
06:12 AM 60.3°F15.7°C 54.4°F12.4°C 76% 2.2 mph SW3.5 kmh SW 4.5 mph7.2 kmh 29.81 in1009.5 mb 0.00 in0.0 mm 0.00 in0.0 mm 0.01 in0.3 mm
06:16 AM 60.1°F15.6°C 54.0°F12.2°C 75% 0.7 mph SW1.1 kmh SW 3.1 mph5.0 kmh 29.81 in1009.5 mb 0.00 in0.0 mm 0.00 in0.0 mm 0.01 in0.3 mm
06:17 AM 60.1°F15.6°C 54.0°F12.2°C 75% 1.6 mph SW2.6 kmh SW 5.4 mph8.7 kmh 29.82 in1009.8 mb 0.00 in0.0 mm 0.00 in0.0 mm 0.01 in0.3 mm
06:21 AM 59.9°F15.5°C 54.4°F12.4°C 77% Calm Calm 1.6 mph2.6 kmh 29.82 in1009.8 mb 0.00 in0.0 mm 0.00 in0.0 mm 0.01 in0.3 mm
06:22 AM 60.1°F15.6°C 54.5°F12.5°C 77% 0.7 mph NW1.1 kmh NW 2.2 mph3.5 kmh 29.81 in1009.5 mb 0.00 in0.0 mm 0.00 in0.0 mm 0.01 in0.3 mm
06:27 AM 60.1°F15.6°C 54.3°F12.4°C 76% 0.7 mph SW1.1 kmh SW 2.2 mph3.5 kmh 29.82 in1009.8 mb 0.00 in0.0 mm 0.00 in0.0 mm 0.01 in0.3 mm
06:32 AM 60.3°F15.7°C 54.2°F12.3°C 75% 0.7 mph S1.1 kmh S 3.1 mph5.0 kmh 29.82 in1009.8 mb 0.00 in0.0 mm 0.00 in0.0 mm 0.01 in0.3 mm
06:36 AM 60.4°F15.8°C 54.3°F12.4°C 75% Calm Calm 1.6 mph2.6 kmh 29.82 in1009.8 mb 0.00 in0.0 mm 0.00 in0.0 mm 0.01 in0.3 mm
06:37 AM 60.4°F15.8°C 54.3°F12.4°C 75% 0.7 mph SW1.1 kmh SW 2.2 mph3.5 kmh 29.82 in1009.8 mb 0.00 in0.0 mm 0.00 in0.0 mm 0.01 in0.3 mm
06:41 AM 60.8°F16.0°C 54.1°F12.3°C 73% Calm Calm 3.1 mph5.0 kmh 29.82 in1009.8 mb 0.00 in0.0 mm 0.00 in0.0 mm 0.01 in0.3 mm
06:42 AM 61.0°F16.1°C 54.3°F12.4°C 73% Calm Calm 0.7 mph1.1 kmh 29.83 in1010.2 mb 0.00 in0.0 mm 0.00 in0.0 mm 0.01 in0.3 mm
06:47 AM 61.5°F16.4°C 54.5°F12.5°C 72% Calm Calm 1.6 mph2.6 kmh 29.82 in1009.8 mb 0.00 in0.0 mm 0.00 in0.0 mm 0.01 in0.3 mm
06:52 AM 62.1°F16.7°C 54.7°F12.6°C 71% 0.7 mph S1.1 kmh S 1.6 mph2.6 kmh 29.82 in1009.8 mb 0.00 in0.0 mm 0.00 in0.0 mm 0.01 in0.3 mm
06:56 AM 62.6°F17.0°C 54.4°F12.4°C 68% Calm Calm 2.2 mph3.5 kmh 29.82 in1009.8 mb 0.00 in0.0 mm 0.00 in0.0 mm 0.01 in0.3 mm
06:57 AM 62.6°F17.0°C 54.7°F12.6°C 69% 1.6 mph NW2.6 kmh NW 3.1 mph5.0 kmh 29.82 in1009.8 mb 0.00 in0.0 mm 0.00 in0.0 mm 0.01 in0.3 mm
07:01 AM 62.6°F17.0°C 53.7°F12.1°C 66% 0.7 mph SW1.1 kmh SW 2.2 mph3.5 kmh 29.83 in1010.2 mb 0.00 in0.0 mm 0.00 in0.0 mm 0.01 in0.3 mm
07:02 AM 62.6°F17.0°C 53.7°F12.1°C 66% 0.7 mph W1.1 kmh W 2.2 mph3.5 kmh 29.83 in1010.2 mb 0.00 in0.0 mm 0.00 in0.0 mm 0.01 in0.3 mm
07:07 AM 63.1°F17.3°C 53.6°F12.0°C 64% Calm Calm 0.7 mph1.1 kmh 29.83 in1010.2 mb 0.00 in0.0 mm 0.00 in0.0 mm 0.01 in0.3 mm
07:12 AM 63.5°F17.5°C 53.3°F11.8°C 62% 0.7 mph S1.1 kmh S 3.1 mph5.0 kmh 29.83 in1010.2 mb 0.00 in0.0 mm 0.00 in0.0 mm 0.01 in0.3 mm
07:16 AM 63.3°F17.4°C 52.8°F11.6°C 61% Calm Calm 3.1 mph5.0 kmh 29.83 in1010.2 mb 0.00 in0.0 mm 0.00 in0.0 mm 0.01 in0.3 mm
07:17 AM 63.3°F17.4°C 52.8°F11.6°C 61% 0.7 mph NW1.1 kmh NW 2.2 mph3.5 kmh 29.83 in1010.2 mb 0.00 in0.0 mm 0.00 in0.0 mm 0.01 in0.3 mm
07:21 AM 63.9°F17.7°C 53.3°F11.8°C 61% Calm Calm 1.6 mph2.6 kmh 29.84 in1010.5 mb 0.00 in0.0 mm 0.00 in0.0 mm 0.01 in0.3 mm
07:22 AM 64.0°F17.8°C 53.5°F11.9°C 61% 1.6 mph SW2.6 kmh SW 2.2 mph3.5 kmh 29.83 in1010.2 mb 0.00 in0.0 mm 0.00 in0.0 mm 0.01 in0.3 mm
07:27 AM 64.8°F18.2°C 54.5°F12.5°C 62% 0.7 mph SW1.1 kmh SW 3.8 mph6.1 kmh 29.84 in1010.5 mb 0.00 in0.0 mm 0.00 in0.0 mm 0.01 in0.3 mm
07:32 AM 64.8°F18.2°C 54.5°F12.5°C 62% Calm Calm 1.6 mph2.6 kmh 29.84 in1010.5 mb 0.00 in0.0 mm 0.00 in0.0 mm 0.01 in0.3 mm
07:36 AM 63.7°F17.6°C 53.1°F11.7°C 61% 0.7 mph NW1.1 kmh NW 2.2 mph3.5 kmh 29.84 in1010.5 mb 0.00 in0.0 mm 0.00 in0.0 mm 0.01 in0.3 mm
07:37 AM 63.9°F17.7°C 53.3°F11.8°C 61% 2.2 mph SW3.5 kmh SW 4.5 mph7.2 kmh 29.84 in1010.5 mb 0.00 in0.0 mm 0.00 in0.0 mm 0.01 in0.3 mm
07:41 AM 63.5°F17.5°C 53.6°F12.0°C 63% Calm Calm 0.7 mph1.1 kmh 29.84 in1010.5 mb 0.00 in0.0 mm 0.00 in0.0 mm 0.01 in0.3 mm
07:42 AM 63.7°F17.6°C 53.8°F12.1°C 63% 0.7 mph S1.1 kmh S 1.6 mph2.6 kmh 29.83 in1010.2 mb 0.00 in0.0 mm 0.00 in0.0 mm 0.01 in0.3 mm
07:47 AM 64.9°F18.3°C 55.0°F12.8°C 63% Calm Calm 1.6 mph2.6 kmh 29.83 in1010.2 mb 0.00 in0.0 mm 0.00 in0.0 mm 0.01 in0.3 mm
07:52 AM 66.7°F19.3°C 56.0°F13.3°C 61% 0.7 mph SW1.1 kmh SW 3.1 mph5.0 kmh 29.84 in1010.5 mb 0.00 in0.0 mm 0.00 in0.0 mm 0.01 in0.3 mm
07:56 AM 66.0°F18.9°C 55.3°F12.9°C 61% Calm Calm 0.7 mph1.1 kmh 29.84 in1010.5 mb 0.00 in0.0 mm 0.00 in0.0 mm 0.01 in0.3 mm
07:57 AM 66.0°F18.9°C 55.0°F12.8°C 60% Calm Calm 1.6 mph2.6 kmh 29.84 in1010.5 mb 0.00 in0.0 mm 0.00 in0.0 mm 0.01 in0.3 mm
08:01 AM 67.1°F19.5°C 56.7°F13.7°C 62% Calm Calm -- 29.85 in1010.8 mb 0.00 in0.0 mm 0.00 in0.0 mm 0.01 in0.3 mm
08:02 AM 67.3°F19.6°C 56.8°F13.8°C 62% Calm Calm 1.6 mph2.6 kmh 29.85 in1010.8 mb 0.00 in0.0 mm 0.00 in0.0 mm 0.01 in0.3 mm
08:07 AM 67.5°F19.7°C 55.2°F12.9°C 57% Calm Calm 0.7 mph1.1 kmh 29.84 in1010.5 mb 0.00 in0.0 mm 0.00 in0.0 mm 0.01 in0.3 mm
08:12 AM 67.5°F19.7°C 55.9°F13.3°C 59% Calm Calm 1.6 mph2.6 kmh 29.85 in1010.8 mb 0.00 in0.0 mm 0.00 in0.0 mm 0.01 in0.3 mm
08:16 AM 68.5°F20.3°C 56.6°F13.7°C 58% 1.6 mph NW2.6 kmh NW 3.1 mph5.0 kmh 29.85 in1010.8 mb 0.00 in0.0 mm 0.00 in0.0 mm 0.01 in0.3 mm
08:17 AM 68.4°F20.2°C 56.4°F13.6°C 58% 0.7 mph S1.1 kmh S 1.6 mph2.6 kmh 29.85 in1010.8 mb 0.00 in0.0 mm 0.00 in0.0 mm 0.01 in0.3 mm
08:21 AM 68.0°F20.0°C 55.3°F12.9°C 56% Calm Calm -- 29.85 in1010.8 mb 0.00 in0.0 mm 0.00 in0.0 mm 0.01 in0.3 mm
08:22 AM 68.2°F20.1°C 55.5°F13.1°C 56% 0.7 mph SW1.1 kmh SW 1.6 mph2.6 kmh 29.85 in1010.8 mb 0.00 in0.0 mm 0.00 in0.0 mm 0.01 in0.3 mm
08:27 AM 69.1°F20.6°C 56.3°F13.5°C 56% Calm Calm 1.6 mph2.6 kmh 29.85 in1010.8 mb 0.00 in0.0 mm 0.00 in0.0 mm 0.01 in0.3 mm
08:32 AM 69.6°F20.9°C 56.5°F13.6°C 55% Calm Calm 1.6 mph2.6 kmh 29.86 in1011.2 mb 0.00 in0.0 mm 0.00 in0.0 mm 0.01 in0.3 mm
08:36 AM 70.3°F21.3°C 55.9°F13.3°C 52% 3.1 mph SW5.0 kmh SW 5.4 mph8.7 kmh 29.85 in1010.8 mb 0.00 in0.0 mm 0.00 in0.0 mm 0.01 in0.3 mm
08:37 AM 70.5°F21.4°C 56.5°F13.6°C 53% 1.6 mph SW2.6 kmh SW 3.1 mph5.0 kmh 29.86 in1011.2 mb 0.00 in0.0 mm 0.00 in0.0 mm 0.01 in0.3 mm
08:41 AM 68.5°F20.3°C 55.5°F13.1°C 55% 1.6 mph SW2.6 kmh SW 2.2 mph3.5 kmh 29.85 in1010.8 mb 0.00 in0.0 mm 0.00 in0.0 mm 0.01 in0.3 mm
08:42 AM 68.4°F20.2°C 55.3°F12.9°C 55% Calm Calm 1.6 mph2.6 kmh 29.86 in1011.2 mb 0.00 in0.0 mm 0.00 in0.0 mm 0.01 in0.3 mm
08:47 AM 70.0°F21.1°C 56.4°F13.6°C 54% 0.7 mph NW1.1 kmh NW 4.5 mph7.2 kmh 29.86 in1011.2 mb 0.00 in0.0 mm 0.00 in0.0 mm 0.01 in0.3 mm
08:52 AM 70.9°F21.6°C 56.8°F13.8°C 53% 2.2 mph SW3.5 kmh SW 3.1 mph5.0 kmh 29.85 in1010.8 mb 0.00 in0.0 mm 0.00 in0.0 mm 0.01 in0.3 mm
08:56 AM 71.2°F21.8°C 57.2°F14.0°C 53% 0.7 mph SW1.1 kmh SW 1.6 mph2.6 kmh 29.85 in1010.8 mb 0.00 in0.0 mm 0.00 in0.0 mm 0.01 in0.3 mm
08:57 AM 71.1°F21.7°C 56.6°F13.7°C 52% Calm Calm 0.7 mph1.1 kmh 29.85 in1010.8 mb 0.00 in0.0 mm 0.00 in0.0 mm 0.01 in0.3 mm
09:01 AM 72.5°F22.5°C 57.1°F13.9°C 50% 0.7 mph 1.1 kmh 2.2 mph3.5 kmh 29.86 in1011.2 mb 0.00 in0.0 mm 0.00 in0.0 mm 0.01 in0.3 mm
09:02 AM 72.7°F22.6°C 57.2°F14.0°C 50% 1.6 mph SW2.6 kmh SW 3.8 mph6.1 kmh 29.86 in1011.2 mb 0.00 in0.0 mm 0.00 in0.0 mm 0.01 in0.3 mm
09:07 AM 70.3°F21.3°C 54.7°F12.6°C 49% 0.7 mph W1.1 kmh W 2.2 mph3.5 kmh 29.85 in1010.8 mb 0.00 in0.0 mm 0.00 in0.0 mm 0.01 in0.3 mm
09:12 AM 70.2°F21.2°C 54.5°F12.5°C 49% 2.2 mph S3.5 kmh S 3.8 mph6.1 kmh 29.85 in1010.8 mb 0.00 in0.0 mm 0.00 in0.0 mm 0.01 in0.3 mm
09:16 AM 70.5°F21.4°C 56.1°F13.4°C 52% 1.6 mph E2.6 kmh E 3.1 mph5.0 kmh 29.85 in1010.8 mb 0.00 in0.0 mm 0.00 in0.0 mm 0.01 in0.3 mm
09:17 AM 70.3°F21.3°C 55.9°F13.3°C 52% 1.6 mph W2.6 kmh W 3.8 mph6.1 kmh 29.86 in1011.2 mb 0.00 in0.0 mm 0.00 in0.0 mm 0.01 in0.3 mm
09:21 AM 72.1°F22.3°C 55.9°F13.3°C 48% 0.7 mph S1.1 kmh S 2.2 mph3.5 kmh 29.85 in1010.8 mb 0.00 in0.0 mm 0.00 in0.0 mm 0.01 in0.3 mm
09:22 AM 72.5°F22.5°C 56.2°F13.4°C 48% 1.6 mph 2.6 kmh 3.8 mph6.1 kmh 29.86 in1011.2 mb 0.00 in0.0 mm 0.00 in0.0 mm 0.01 in0.3 mm
09:27 AM 74.7°F23.7°C 56.8°F13.8°C 45% 0.7 mph NW1.1 kmh NW 3.1 mph5.0 kmh 29.85 in1010.8 mb 0.00 in0.0 mm 0.00 in0.0 mm 0.01 in0.3 mm
09:32 AM 73.9°F23.3°C 56.1°F13.4°C 45% 0.7 mph S1.1 kmh S 3.1 mph5.0 kmh 29.85 in1010.8 mb 0.00 in0.0 mm 0.00 in0.0 mm 0.01 in0.3 mm
09:36 AM 70.7°F21.5°C 54.1°F12.3°C 47% 3.8 mph SW6.1 kmh SW 6.9 mph11.1 kmh 29.86 in1011.2 mb 0.00 in0.0 mm 0.00 in0.0 mm 0.01 in0.3 mm
09:37 AM 71.4°F21.9°C 54.8°F12.7°C 47% 3.1 mph SW5.0 kmh SW 4.5 mph7.2 kmh 29.86 in1011.2 mb 0.00 in0.0 mm 0.00 in0.0 mm 0.01 in0.3 mm
09:41 AM 68.7°F20.4°C 53.6°F12.0°C 50% 2.2 mph NW3.5 kmh NW 4.5 mph7.2 kmh 29.86 in1011.2 mb 0.00 in0.0 mm 0.00 in0.0 mm 0.01 in0.3 mm
09:42 AM 68.5°F20.3°C 53.9°F12.2°C 51% 0.7 mph SW1.1 kmh SW 1.6 mph2.6 kmh 29.86 in1011.2 mb 0.00 in0.0 mm 0.00 in0.0 mm 0.01 in0.3 mm
09:47 AM 67.8°F19.9°C 55.2°F12.9°C 56% 0.7 mph W1.1 kmh W 1.6 mph2.6 kmh 29.86 in1011.2 mb 0.00 in0.0 mm 0.00 in0.0 mm 0.01 in0.3 mm
09:52 AM 67.3°F19.6°C 54.7°F12.6°C 56% 0.7 mph SW1.1 kmh SW 2.2 mph3.5 kmh 29.86 in1011.2 mb 0.00 in0.0 mm 0.00 in0.0 mm 0.01 in0.3 mm
09:56 AM 68.7°F20.4°C 56.4°F13.6°C 57% Calm Calm 1.6 mph2.6 kmh 29.86 in1011.2 mb 0.00 in0.0 mm 0.00 in0.0 mm 0.01 in0.3 mm
09:57 AM 68.5°F20.3°C 55.8°F13.2°C 56% Calm Calm 0.7 mph1.1 kmh 29.86 in1011.2 mb 0.00 in0.0 mm 0.00 in0.0 mm 0.01 in0.3 mm
10:01 AM 70.7°F21.5°C 57.1°F13.9°C 54% 0.7 mph SW1.1 kmh SW 1.6 mph2.6 kmh 29.86 in1011.2 mb 0.00 in0.0 mm 0.00 in0.0 mm 0.01 in0.3 mm
10:02 AM 70.9°F21.6°C 56.8°F13.8°C 53% 2.2 mph E3.5 kmh E 3.8 mph6.1 kmh 29.86 in1011.2 mb 0.00 in0.0 mm 0.00 in0.0 mm 0.01 in0.3 mm
10:07 AM 71.8°F22.1°C 56.8°F13.8°C 51% 2.2 mph SW3.5 kmh SW 4.5 mph7.2 kmh 29.86 in1011.2 mb 0.00 in0.0 mm 0.00 in0.0 mm 0.01 in0.3 mm
10:12 AM 69.8°F21.0°C 55.0°F12.8°C 51% 1.6 mph SW2.6 kmh SW 3.1 mph5.0 kmh 29.86 in1011.2 mb 0.00 in0.0 mm 0.00 in0.0 mm 0.01 in0.3 mm
10:16 AM 68.7°F20.4°C 55.2°F12.9°C 54% 0.7 mph 1.1 kmh 1.6 mph2.6 kmh 29.86 in1011.2 mb 0.00 in0.0 mm 0.00 in0.0 mm 0.01 in0.3 mm
10:17 AM 68.7°F20.4°C 55.2°F12.9°C 54% 1.6 mph NW2.6 kmh NW 3.1 mph5.0 kmh 29.86 in1011.2 mb 0.00 in0.0 mm 0.00 in0.0 mm 0.01 in0.3 mm
10:21 AM 69.6°F20.9°C 57.2°F14.0°C 57% 2.2 mph SW3.5 kmh SW 3.8 mph6.1 kmh 29.86 in1011.2 mb 0.00 in0.0 mm 0.00 in0.0 mm 0.01 in0.3 mm
10:22 AM 69.6°F20.9°C 56.8°F13.8°C 56% 3.1 mph SW5.0 kmh SW 3.8 mph6.1 kmh 29.86 in1011.2 mb 0.00 in0.0 mm 0.00 in0.0 mm 0.01 in0.3 mm
10:27 AM 69.1°F20.6°C 56.3°F13.5°C 56% 1.6 mph SW2.6 kmh SW 2.2 mph3.5 kmh 29.86 in1011.2 mb 0.00 in0.0 mm 0.00 in0.0 mm 0.01 in0.3 mm
10:32 AM 69.1°F20.6°C 55.6°F13.1°C 54% 1.6 mph NW2.6 kmh NW 3.8 mph6.1 kmh 29.87 in1011.5 mb 0.00 in0.0 mm 0.00 in0.0 mm 0.01 in0.3 mm
10:36 AM 68.7°F20.4°C 56.0°F13.3°C 56% 1.6 mph S2.6 kmh S 3.8 mph6.1 kmh 29.86 in1011.2 mb 0.00 in0.0 mm 0.00 in0.0 mm 0.01 in0.3 mm
10:37 AM 68.5°F20.3°C 55.5°F13.1°C 55% 1.6 mph S2.6 kmh S 3.1 mph5.0 kmh 29.87 in1011.5 mb 0.00 in0.0 mm 0.00 in0.0 mm 0.01 in0.3 mm
10:41 AM 69.8°F21.0°C 56.2°F13.4°C 54% 3.8 mph SW6.1 kmh SW 5.4 mph8.7 kmh 29.87 in1011.5 mb 0.00 in0.0 mm 0.00 in0.0 mm 0.01 in0.3 mm
10:42 AM 70.0°F21.1°C 56.4°F13.6°C 54% 1.6 mph S2.6 kmh S 3.1 mph5.0 kmh 29.87 in1011.5 mb 0.00 in0.0 mm 0.00 in0.0 mm 0.01 in0.3 mm
10:47 AM 70.0°F21.1°C 56.0°F13.3°C 53% 0.7 mph SW1.1 kmh SW 2.2 mph3.5 kmh 29.87 in1011.5 mb 0.00 in0.0 mm 0.00 in0.0 mm 0.01 in0.3 mm
10:52 AM 70.5°F21.4°C 56.1°F13.4°C 52% 1.6 mph W2.6 kmh W 2.2 mph3.5 kmh 29.87 in1011.5 mb 0.00 in0.0 mm 0.00 in0.0 mm 0.01 in0.3 mm
10:56 AM 70.5°F21.4°C 55.3°F12.9°C 50% 1.6 mph W2.6 kmh W 2.2 mph3.5 kmh 29.86 in1011.2 mb 0.00 in0.0 mm 0.00 in0.0 mm 0.01 in0.3 mm
10:57 AM 70.9°F21.6°C 55.6°F13.1°C 50% 6.0 mph W9.7 kmh W 7.6 mph12.2 kmh 29.86 in1011.2 mb 0.00 in0.0 mm 0.00 in0.0 mm 0.01 in0.3 mm
11:01 AM 70.9°F21.6°C 56.4°F13.6°C 52% 2.2 mph NW3.5 kmh NW 3.8 mph6.1 kmh 29.87 in1011.5 mb 0.00 in0.0 mm 0.00 in0.0 mm 0.01 in0.3 mm
11:02 AM 70.9°F21.6°C 56.0°F13.3°C 51% 2.2 mph 3.5 kmh 4.5 mph7.2 kmh 29.86 in1011.2 mb 0.00 in0.0 mm 0.00 in0.0 mm 0.01 in0.3 mm
11:07 AM 72.3°F22.4°C 56.9°F13.8°C 50% 2.2 mph NW3.5 kmh NW 4.5 mph7.2 kmh 29.87 in1011.5 mb 0.00 in0.0 mm 0.00 in0.0 mm 0.01 in0.3 mm
11:12 AM 71.8°F22.1°C 56.4°F13.6°C 50% 2.2 mph SW3.5 kmh SW 3.1 mph5.0 kmh 29.86 in1011.2 mb 0.00 in0.0 mm 0.00 in0.0 mm 0.01 in0.3 mm
11:16 AM 69.3°F20.7°C 55.3°F12.9°C 53% 2.2 mph E3.5 kmh E 5.4 mph8.7 kmh 29.86 in1011.2 mb 0.00 in0.0 mm 0.00 in0.0 mm 0.01 in0.3 mm
11:17 AM 69.6°F20.9°C 55.3°F12.9°C 52% 0.7 mph SE1.1 kmh SE 1.6 mph2.6 kmh 29.86 in1011.2 mb 0.00 in0.0 mm 0.00 in0.0 mm 0.01 in0.3 mm
11:21 AM 69.1°F20.6°C 56.0°F13.3°C 55% 6.0 mph SW9.7 kmh SW 7.6 mph12.2 kmh 29.86 in1011.2 mb 0.00 in0.0 mm 0.00 in0.0 mm 0.01 in0.3 mm
11:22 AM 68.7°F20.4°C 56.0°F13.3°C 56% 2.2 mph NW3.5 kmh NW 4.5 mph7.2 kmh 29.87 in1011.5 mb 0.00 in0.0 mm 0.00 in0.0 mm 0.01 in0.3 mm
11:27 AM 70.0°F21.1°C 57.2°F14.0°C 56% 0.7 mph SW1.1 kmh SW 2.2 mph3.5 kmh 29.86 in1011.2 mb 0.00 in0.0 mm 0.00 in0.0 mm 0.00 in0.0 mm
11:32 AM 69.6°F20.9°C 56.1°F13.4°C 54% 1.6 mph S2.6 kmh S 2.2 mph3.5 kmh 29.86 in1011.2 mb 0.00 in0.0 mm 0.00 in0.0 mm 0.00 in0.0 mm
11:36 AM 68.0°F20.0°C 54.6°F12.6°C 54% 3.1 mph SW5.0 kmh SW 7.6 mph12.2 kmh 29.87 in1011.5 mb 0.00 in0.0 mm 0.00 in0.0 mm 0.00 in0.0 mm
11:37 AM 68.2°F20.1°C 54.8°F12.7°C 54% 2.2 mph S3.5 kmh S 6.0 mph9.7 kmh 29.86 in1011.2 mb 0.00 in0.0 mm 0.00 in0.0 mm 0.00 in0.0 mm
11:41 AM 67.3°F19.6°C 54.7°F12.6°C 56% 2.2 mph S3.5 kmh S 4.5 mph7.2 kmh 29.86 in1011.2 mb 0.00 in0.0 mm 0.00 in0.0 mm 0.00 in0.0 mm
11:42 AM 67.5°F19.7°C 54.9°F12.7°C 56% 6.9 mph SW11.1 kmh SW 9.2 mph14.8 kmh 29.86 in1011.2 mb 0.00 in0.0 mm 0.00 in0.0 mm 0.00 in0.0 mm
11:47 AM 68.4°F20.2°C 56.0°F13.3°C 57% 0.7 mph S1.1 kmh S 3.1 mph5.0 kmh 29.86 in1011.2 mb 0.00 in0.0 mm 0.00 in0.0 mm 0.00 in0.0 mm
11:52 AM 68.7°F20.4°C 54.9°F12.7°C 53% 2.2 mph SW3.5 kmh SW 3.1 mph5.0 kmh 29.86 in1011.2 mb 0.00 in0.0 mm 0.00 in0.0 mm 0.00 in0.0 mm
11:56 AM 68.0°F20.0°C 55.0°F12.8°C 55% 1.6 mph SW2.6 kmh SW 3.8 mph6.1 kmh 29.86 in1011.2 mb 0.00 in0.0 mm 0.00 in0.0 mm 0.00 in0.0 mm
11:57 AM 68.0°F20.0°C 55.0°F12.8°C 55% 3.1 mph SW5.0 kmh SW 4.5 mph7.2 kmh 29.86 in1011.2 mb 0.00 in0.0 mm 0.00 in0.0 mm 0.00 in0.0 mm
12:01 PM 67.8°F19.9°C 54.4°F12.4°C 54% 3.8 mph S6.1 kmh S 7.6 mph12.2 kmh 29.86 in1011.2 mb 0.00 in0.0 mm 0.00 in0.0 mm 0.00 in0.0 mm
12:02 PM 68.0°F20.0°C 54.6°F12.6°C 54% 6.9 mph S11.1 kmh S 9.8 mph15.8 kmh 29.86 in1011.2 mb 0.00 in0.0 mm 0.00 in0.0 mm 0.00 in0.0 mm
12:07 PM 68.2°F20.1°C 54.8°F12.7°C 54% 4.5 mph SW7.2 kmh SW 6.9 mph11.1 kmh 29.86 in1011.2 mb 0.00 in0.0 mm 0.00 in0.0 mm 0.00 in0.0 mm
12:12 PM 68.5°F20.3°C 54.7°F12.6°C 53% 4.5 mph NE7.2 kmh NE 6.0 mph9.7 kmh 29.86 in1011.2 mb 0.00 in0.0 mm 0.00 in0.0 mm 0.00 in0.0 mm
12:16 PM 67.8°F19.9°C 54.0°F12.2°C 53% 3.8 mph W6.1 kmh W 6.9 mph11.1 kmh 29.86 in1011.2 mb 0.00 in0.0 mm 0.00 in0.0 mm 0.00 in0.0 mm
12:17 PM 68.0°F20.0°C 53.8°F12.1°C 52% 3.8 mph SW6.1 kmh SW 6.0 mph9.7 kmh 29.86 in1011.2 mb 0.00 in0.0 mm 0.00 in0.0 mm 0.00 in0.0 mm
12:21 PM 68.7°F20.4°C 54.9°F12.7°C 53% 3.1 mph SW5.0 kmh SW 4.5 mph7.2 kmh 29.86 in1011.2 mb 0.00 in0.0 mm 0.00 in0.0 mm 0.00 in0.0 mm
12:22 PM 69.1°F20.6°C 54.8°F12.7°C 52% 2.2 mph S3.5 kmh S 3.8 mph6.1 kmh 29.86 in1011.2 mb 0.00 in0.0 mm 0.00 in0.0 mm 0.00 in0.0 mm
12:27 PM 69.3°F20.7°C 54.5°F12.5°C 51% 3.1 mph SW5.0 kmh SW 4.5 mph7.2 kmh 29.86 in1011.2 mb 0.00 in0.0 mm 0.00 in0.0 mm 0.00 in0.0 mm
12:32 PM 68.7°F20.4°C 54.5°F12.5°C 52% 5.4 mph SW8.7 kmh SW 9.8 mph15.8 kmh 29.86 in1011.2 mb 0.00 in0.0 mm 0.00 in0.0 mm 0.00 in0.0 mm
12:36 PM 70.0°F21.1°C 54.8°F12.7°C 50% 4.5 mph W7.2 kmh W 10.7 mph17.2 kmh 29.86 in1011.2 mb 0.00 in0.0 mm 0.00 in0.0 mm 0.00 in0.0 mm
12:37 PM 70.0°F21.1°C 55.2°F12.9°C 51% 4.5 mph SW7.2 kmh SW 8.3 mph13.4 kmh 29.86 in1011.2 mb 0.00 in0.0 mm 0.00 in0.0 mm 0.00 in0.0 mm
12:41 PM 68.7°F20.4°C 54.1°F12.3°C 51% 6.0 mph SW9.7 kmh SW 9.8 mph15.8 kmh 29.86 in1011.2 mb 0.00 in0.0 mm 0.00 in0.0 mm 0.00 in0.0 mm
12:42 PM 68.7°F20.4°C 54.1°F12.3°C 51% 3.8 mph NNW6.1 kmh NNW 8.3 mph13.4 kmh 29.87 in1011.5 mb 0.00 in0.0 mm 0.00 in0.0 mm 0.00 in0.0 mm
12:47 PM 68.5°F20.3°C 54.7°F12.6°C 53% 2.2 mph SW3.5 kmh SW 4.5 mph7.2 kmh 29.86 in1011.2 mb 0.00 in0.0 mm 0.00 in0.0 mm 0.00 in0.0 mm
12:52 PM 68.7°F20.4°C 54.9°F12.7°C 53% 7.6 mph N12.2 kmh N 11.4 mph18.3 kmh 29.87 in1011.5 mb 0.00 in0.0 mm 0.00 in0.0 mm 0.00 in0.0 mm
12:56 PM 68.0°F20.0°C 54.2°F12.3°C 53% 2.2 mph SW3.5 kmh SW 4.5 mph7.2 kmh 29.87 in1011.5 mb 0.00 in0.0 mm 0.00 in0.0 mm 0.00 in0.0 mm
12:57 PM 68.2°F20.1°C 54.4°F12.4°C 53% 5.4 mph SW8.7 kmh SW 11.4 mph18.3 kmh 29.87 in1011.5 mb 0.00 in0.0 mm 0.00 in0.0 mm 0.00 in0.0 mm
01:01 PM 68.7°F20.4°C 55.2°F12.9°C 54% 6.9 mph S11.1 kmh S 10.7 mph17.2 kmh 29.87 in1011.5 mb 0.00 in0.0 mm 0.00 in0.0 mm 0.00 in0.0 mm
01:02 PM 68.7°F20.4°C 55.2°F12.9°C 54% 3.1 mph S5.0 kmh S 6.9 mph11.1 kmh 29.87 in1011.5 mb 0.00 in0.0 mm 0.00 in0.0 mm 0.00 in0.0 mm
01:07 PM 69.1°F20.6°C 55.6°F13.1°C 54% 9.2 mph WNW14.8 kmh WNW 13.0 mph20.9 kmh 29.87 in1011.5 mb 0.00 in0.0 mm 0.00 in0.0 mm 0.00 in0.0 mm
01:12 PM 68.7°F20.4°C 55.2°F12.9°C 54% 5.4 mph SW8.7 kmh SW 9.8 mph15.8 kmh 29.87 in1011.5 mb 0.00 in0.0 mm 0.00 in0.0 mm 0.00 in0.0 mm
01:16 PM 69.6°F20.9°C 55.7°F13.2°C 53% 2.2 mph S3.5 kmh S 3.8 mph6.1 kmh 29.86 in1011.2 mb 0.00 in0.0 mm 0.00 in0.0 mm 0.00 in0.0 mm
01:17 PM 69.6°F20.9°C 56.1°F13.4°C 54% 4.5 mph S7.2 kmh S 7.6 mph12.2 kmh 29.86 in1011.2 mb 0.00 in0.0 mm 0.00 in0.0 mm 0.00 in0.0 mm
01:21 PM 69.1°F20.6°C 55.6°F13.1°C 54% 3.8 mph SW6.1 kmh SW 6.0 mph9.7 kmh 29.86 in1011.2 mb 0.00 in0.0 mm 0.00 in0.0 mm 0.00 in0.0 mm
01:22 PM 69.1°F20.6°C 55.6°F13.1°C 54% 5.4 mph SW8.7 kmh SW 8.3 mph13.4 kmh 29.86 in1011.2 mb 0.00 in0.0 mm 0.00 in0.0 mm 0.00 in0.0 mm
01:27 PM 69.6°F20.9°C 56.1°F13.4°C 54% 6.0 mph NNE9.7 kmh NNE 9.8 mph15.8 kmh 29.86 in1011.2 mb 0.00 in0.0 mm 0.00 in0.0 mm 0.00 in0.0 mm
01:32 PM 69.1°F20.6°C 55.6°F13.1°C 54% 5.4 mph NNW8.7 kmh NNW 9.2 mph14.8 kmh 29.87 in1011.5 mb 0.00 in0.0 mm 0.00 in0.0 mm 0.00 in0.0 mm
01:36 PM 69.1°F20.6°C 55.6°F13.1°C 54% 3.1 mph SW5.0 kmh SW 6.0 mph9.7 kmh 29.86 in1011.2 mb 0.00 in0.0 mm 0.00 in0.0 mm 0.00 in0.0 mm
01:37 PM 69.1°F20.6°C 55.6°F13.1°C 54% 4.5 mph SW7.2 kmh SW 6.9 mph11.1 kmh 29.86 in1011.2 mb 0.00 in0.0 mm 0.00 in0.0 mm 0.00 in0.0 mm
01:41 PM 68.7°F20.4°C 55.6°F13.1°C 55% 4.5 mph WSW7.2 kmh WSW 6.9 mph11.1 kmh 29.87 in1011.5 mb 0.00 in0.0 mm 0.00 in0.0 mm 0.00 in0.0 mm
01:42 PM 68.7°F20.4°C 55.6°F13.1°C 55% 2.2 mph SW3.5 kmh SW 3.8 mph6.1 kmh 29.87 in1011.5 mb 0.00 in0.0 mm 0.00 in0.0 mm 0.00 in0.0 mm
01:47 PM 68.4°F20.2°C 55.7°F13.2°C 56% 4.5 mph S7.2 kmh S 9.2 mph14.8 kmh 29.87 in1011.5 mb 0.00 in0.0 mm 0.00 in0.0 mm 0.00 in0.0 mm
01:52 PM 68.7°F20.4°C 56.7°F13.7°C 58% 0.7 mph SW1.1 kmh SW 2.2 mph3.5 kmh 29.86 in1011.2 mb 0.00 in0.0 mm 0.00 in0.0 mm 0.00 in0.0 mm
01:56 PM 69.6°F20.9°C 56.5°F13.6°C 55% 2.2 mph S3.5 kmh S 3.8 mph6.1 kmh 29.87 in1011.5 mb 0.00 in0.0 mm 0.00 in0.0 mm 0.00 in0.0 mm
01:57 PM 69.6°F20.9°C 56.5°F13.6°C 55% 3.1 mph SW5.0 kmh SW 6.0 mph9.7 kmh 29.87 in1011.5 mb 0.00 in0.0 mm 0.00 in0.0 mm 0.00 in0.0 mm
02:01 PM 69.3°F20.7°C 56.1°F13.4°C 55% 4.5 mph S7.2 kmh S 9.2 mph14.8 kmh 29.87 in1011.5 mb 0.00 in0.0 mm 0.00 in0.0 mm 0.00 in0.0 mm
02:02 PM 69.1°F20.6°C 56.0°F13.3°C 55% 4.5 mph SW7.2 kmh SW 6.9 mph11.1 kmh 29.86 in1011.2 mb 0.00 in0.0 mm 0.00 in0.0 mm 0.00 in0.0 mm
02:07 PM 69.6°F20.9°C 56.8°F13.8°C 56% 4.5 mph S7.2 kmh S 9.2 mph14.8 kmh 29.86 in1011.2 mb 0.00 in0.0 mm 0.00 in0.0 mm 0.00 in0.0 mm
02:12 PM 70.3°F21.3°C 56.7°F13.7°C 54% 9.8 mph SW15.8 kmh SW 14.5 mph23.3 kmh 29.86 in1011.2 mb 0.00 in0.0 mm 0.00 in0.0 mm 0.00 in0.0 mm
02:16 PM 71.6°F22.0°C 56.7°F13.7°C 51% 9.2 mph SW14.8 kmh SW 17.4 mph28.0 kmh 29.87 in1011.5 mb 0.00 in0.0 mm 0.00 in0.0 mm 0.00 in0.0 mm
02:17 PM 71.2°F21.8°C 57.2°F14.0°C 53% 2.2 mph S3.5 kmh S 3.8 mph6.1 kmh 29.87 in1011.5 mb 0.00 in0.0 mm 0.00 in0.0 mm 0.00 in0.0 mm
02:21 PM 70.5°F21.4°C 55.7°F13.2°C 51% 5.4 mph S8.7 kmh S 7.6 mph12.2 kmh 29.87 in1011.5 mb 0.00 in0.0 mm 0.00 in0.0 mm 0.00 in0.0 mm
02:22 PM 70.3°F21.3°C 55.9°F13.3°C 52% 3.8 mph SW6.1 kmh SW 6.0 mph9.7 kmh 29.86 in1011.2 mb 0.00 in0.0 mm 0.00 in0.0 mm 0.00 in0.0 mm
02:27 PM 69.6°F20.9°C 56.5°F13.6°C 55% 0.7 mph SW1.1 kmh SW 2.2 mph3.5 kmh 29.87 in1011.5 mb 0.00 in0.0 mm 0.00 in0.0 mm 0.00 in0.0 mm
02:32 PM 69.8°F21.0°C 57.0°F13.9°C 56% 5.4 mph SW8.7 kmh SW 6.9 mph11.1 kmh 29.86 in1011.2 mb 0.00 in0.0 mm 0.00 in0.0 mm 0.00 in0.0 mm
02:36 PM 70.0°F21.1°C 56.4°F13.6°C 54% 2.2 mph NW3.5 kmh NW 4.5 mph7.2 kmh 29.87 in1011.5 mb 0.00 in0.0 mm 0.00 in0.0 mm 0.00 in0.0 mm
02:37 PM 70.0°F21.1°C 56.4°F13.6°C 54% 3.1 mph S5.0 kmh S 5.4 mph8.7 kmh 29.86 in1011.2 mb 0.00 in0.0 mm 0.00 in0.0 mm 0.00 in0.0 mm
02:41 PM 69.1°F20.6°C 56.3°F13.5°C 56% 3.1 mph NE5.0 kmh NE 4.5 mph7.2 kmh 29.86 in1011.2 mb 0.00 in0.0 mm 0.00 in0.0 mm 0.00 in0.0 mm
02:42 PM 69.1°F20.6°C 56.7°F13.7°C 57% 3.1 mph S5.0 kmh S 6.9 mph11.1 kmh 29.87 in1011.5 mb 0.00 in0.0 mm 0.00 in0.0 mm 0.00 in0.0 mm
02:47 PM 68.7°F20.4°C 56.4°F13.6°C 57% 3.1 mph SW5.0 kmh SW 6.9 mph11.1 kmh 29.87 in1011.5 mb 0.00 in0.0 mm 0.00 in0.0 mm 0.00 in0.0 mm
02:52 PM 70.9°F21.6°C 57.2°F14.0°C 54% 3.8 mph W6.1 kmh W 6.0 mph9.7 kmh 29.87 in1011.5 mb 0.00 in0.0 mm 0.00 in0.0 mm 0.00 in0.0 mm
02:56 PM 70.0°F21.1°C 56.8°F13.8°C 55% 6.0 mph SW9.7 kmh SW 7.6 mph12.2 kmh 29.87 in1011.5 mb 0.00 in0.0 mm 0.00 in0.0 mm 0.00 in0.0 mm
02:57 PM 70.0°F21.1°C 56.8°F13.8°C 55% 2.2 mph S3.5 kmh S 6.0 mph9.7 kmh 29.87 in1011.5 mb 0.00 in0.0 mm 0.00 in0.0 mm 0.00 in0.0 mm
03:01 PM 69.6°F20.9°C 57.6°F14.2°C 58% 1.6 mph SW2.6 kmh SW 3.1 mph5.0 kmh 29.87 in1011.5 mb 0.00 in0.0 mm 0.00 in0.0 mm 0.00 in0.0 mm
03:02 PM 70.0°F21.1°C 57.5°F14.2°C 57% 3.1 mph SW5.0 kmh SW 6.9 mph11.1 kmh 29.87 in1011.5 mb 0.00 in0.0 mm 0.00 in0.0 mm 0.00 in0.0 mm
03:07 PM 72.1°F22.3°C 58.0°F14.4°C 53% 2.2 mph SW3.5 kmh SW 3.8 mph6.1 kmh 29.87 in1011.5 mb 0.00 in0.0 mm 0.00 in0.0 mm 0.00 in0.0 mm
03:12 PM 71.6°F22.0°C 56.2°F13.4°C 50% 1.6 mph NW2.6 kmh NW 3.8 mph6.1 kmh 29.87 in1011.5 mb 0.00 in0.0 mm 0.00 in0.0 mm 0.00 in0.0 mm
03:16 PM 72.1°F22.3°C 56.7°F13.7°C 50% 3.1 mph SW5.0 kmh SW 4.5 mph7.2 kmh 29.87 in1011.5 mb 0.00 in0.0 mm 0.00 in0.0 mm 0.00 in0.0 mm
03:17 PM 72.0°F22.2°C 56.6°F13.7°C 50% 3.8 mph SW6.1 kmh SW 6.0 mph9.7 kmh 29.87 in1011.5 mb 0.00 in0.0 mm 0.00 in0.0 mm 0.00 in0.0 mm
03:21 PM 72.1°F22.3°C 56.7°F13.7°C 50% 3.1 mph 5.0 kmh 5.4 mph8.7 kmh 29.87 in1011.5 mb 0.00 in0.0 mm 0.00 in0.0 mm 0.00 in0.0 mm
03:22 PM 72.1°F22.3°C 56.3°F13.5°C 49% 3.1 mph S5.0 kmh S 5.4 mph8.7 kmh 29.87 in1011.5 mb 0.00 in0.0 mm 0.00 in0.0 mm 0.00 in0.0 mm
03:27 PM 71.8°F22.1°C 56.4°F13.6°C 50% 5.4 mph S8.7 kmh S 7.6 mph12.2 kmh 29.87 in1011.5 mb 0.00 in0.0 mm 0.00 in0.0 mm 0.00 in0.0 mm
03:32 PM 70.2°F21.2°C 55.4°F13.0°C 51% 3.1 mph SW5.0 kmh SW 4.5 mph7.2 kmh 29.87 in1011.5 mb 0.00 in0.0 mm 0.00 in0.0 mm 0.00 in0.0 mm
03:36 PM 70.9°F21.6°C 56.0°F13.3°C 51% 4.5 mph S7.2 kmh S 7.6 mph12.2 kmh 29.87 in1011.5 mb 0.00 in0.0 mm 0.00 in0.0 mm 0.00 in0.0 mm
03:37 PM 70.7°F21.5°C 56.3°F13.5°C 52% 2.2 mph NW3.5 kmh NW 4.5 mph7.2 kmh 29.87 in1011.5 mb 0.00 in0.0 mm 0.00 in0.0 mm 0.00 in0.0 mm
03:41 PM 71.6°F22.0°C 55.4°F13.0°C 48% 2.2 mph W3.5 kmh W 5.4 mph8.7 kmh 29.87 in1011.5 mb 0.00 in0.0 mm 0.00 in0.0 mm 0.00 in0.0 mm
03:42 PM 71.8°F22.1°C 55.6°F13.1°C 48% 1.6 mph WNW2.6 kmh WNW 5.4 mph8.7 kmh 29.87 in1011.5 mb 0.00 in0.0 mm 0.00 in0.0 mm 0.00 in0.0 mm
03:47 PM 71.6°F22.0°C 55.0°F12.8°C 47% 6.9 mph S11.1 kmh S 10.7 mph17.2 kmh 29.87 in1011.5 mb 0.00 in0.0 mm 0.00 in0.0 mm 0.00 in0.0 mm
03:52 PM 72.7°F22.6°C 56.4°F13.6°C 48% 3.1 mph SW5.0 kmh SW 6.9 mph11.1 kmh 29.88 in1011.9 mb 0.00 in0.0 mm 0.00 in0.0 mm 0.00 in0.0 mm
03:56 PM 73.6°F23.1°C 57.2°F14.0°C 48% 0.7 mph S1.1 kmh S 2.2 mph3.5 kmh 29.87 in1011.5 mb 0.00 in0.0 mm 0.00 in0.0 mm 0.00 in0.0 mm
03:57 PM 73.4°F23.0°C 56.6°F13.7°C 47% Calm Calm 1.6 mph2.6 kmh 29.88 in1011.9 mb 0.00 in0.0 mm 0.00 in0.0 mm 0.00 in0.0 mm
04:01 PM 73.9°F23.3°C 57.0°F13.9°C 47% 4.5 mph SW7.2 kmh SW 8.3 mph13.4 kmh 29.88 in1011.9 mb 0.00 in0.0 mm 0.00 in0.0 mm 0.00 in0.0 mm
04:02 PM 73.2°F22.9°C 56.4°F13.6°C 47% 3.1 mph NW5.0 kmh NW 4.5 mph7.2 kmh 29.88 in1011.9 mb 0.00 in0.0 mm 0.00 in0.0 mm 0.00 in0.0 mm
04:07 PM 70.7°F21.5°C 56.3°F13.5°C 52% 1.6 mph NE2.6 kmh NE 3.1 mph5.0 kmh 29.87 in1011.5 mb 0.00 in0.0 mm 0.00 in0.0 mm 0.00 in0.0 mm
04:12 PM 71.2°F21.8°C 57.2°F14.0°C 53% 3.1 mph SW5.0 kmh SW 4.5 mph7.2 kmh 29.88 in1011.9 mb 0.00 in0.0 mm 0.00 in0.0 mm 0.00 in0.0 mm
04:16 PM 70.0°F21.1°C 54.8°F12.7°C 50% 3.1 mph S5.0 kmh S 6.0 mph9.7 kmh 29.88 in1011.9 mb 0.00 in0.0 mm 0.00 in0.0 mm 0.00 in0.0 mm
04:17 PM 70.2°F21.2°C 55.4°F13.0°C 51% 3.1 mph SW5.0 kmh SW 4.5 mph7.2 kmh 29.88 in1011.9 mb 0.00 in0.0 mm 0.00 in0.0 mm 0.00 in0.0 mm
04:21 PM 70.2°F21.2°C 55.4°F13.0°C 51% 3.1 mph SW5.0 kmh SW 6.9 mph11.1 kmh 29.87 in1011.5 mb 0.00 in0.0 mm 0.00 in0.0 mm 0.00 in0.0 mm
05:00 PM 72.1°F22.3°C 55.9°F13.3°C 48% 1.6 mph W2.6 kmh W 3.1 mph5.0 kmh 29.87 in1011.5 mb 0.00 in0.0 mm 0.00 in0.0 mm 0.00 in0.0 mm
05:02 PM 72.3°F22.4°C 56.5°F13.6°C 49% 3.1 mph SW5.0 kmh SW 6.0 mph9.7 kmh 29.88 in1011.9 mb 0.00 in0.0 mm 0.00 in0.0 mm 0.00 in0.0 mm
05:07 PM 71.8°F22.1°C 55.6°F13.1°C 48% 0.7 mph E1.1 kmh E 5.4 mph8.7 kmh 29.88 in1011.9 mb 0.00 in0.0 mm 0.00 in0.0 mm 0.00 in0.0 mm
05:12 PM 71.8°F22.1°C 56.0°F13.3°C 49% 3.1 mph S5.0 kmh S 4.5 mph7.2 kmh 29.88 in1011.9 mb 0.00 in0.0 mm 0.00 in0.0 mm 0.00 in0.0 mm
05:16 PM 70.3°F21.3°C 55.5°F13.1°C 51% 4.5 mph S7.2 kmh S 6.9 mph11.1 kmh 29.88 in1011.9 mb 0.00 in0.0 mm 0.00 in0.0 mm 0.00 in0.0 mm
05:17 PM 70.7°F21.5°C 55.9°F13.3°C 51% 2.2 mph S3.5 kmh S 3.8 mph6.1 kmh 29.88 in1011.9 mb 0.00 in0.0 mm 0.00 in0.0 mm 0.00 in0.0 mm
05:21 PM 70.7°F21.5°C 55.9°F13.3°C 51% 2.2 mph SW3.5 kmh SW 3.8 mph6.1 kmh 29.88 in1011.9 mb 0.00 in0.0 mm 0.00 in0.0 mm 0.00 in0.0 mm
05:22 PM 70.7°F21.5°C 55.9°F13.3°C 51% 3.1 mph SW5.0 kmh SW 6.0 mph9.7 kmh 29.88 in1011.9 mb 0.00 in0.0 mm 0.00 in0.0 mm 0.00 in0.0 mm
05:27 PM 69.6°F20.9°C 55.3°F12.9°C 52% 2.2 mph SW3.5 kmh SW 4.5 mph7.2 kmh 29.88 in1011.9 mb 0.00 in0.0 mm 0.00 in0.0 mm 0.00 in0.0 mm
05:32 PM 70.9°F21.6°C 56.4°F13.6°C 52% 1.6 mph NW2.6 kmh NW 3.1 mph5.0 kmh 29.88 in1011.9 mb 0.00 in0.0 mm 0.00 in0.0 mm 0.00 in0.0 mm
05:36 PM 72.9°F22.7°C 56.5°F13.6°C 48% 1.6 mph E2.6 kmh E 4.5 mph7.2 kmh 29.87 in1011.5 mb 0.00 in0.0 mm 0.00 in0.0 mm 0.00 in0.0 mm
05:37 PM 72.7°F22.6°C 56.4°F13.6°C 48% 2.2 mph SW3.5 kmh SW 3.8 mph6.1 kmh 29.88 in1011.9 mb 0.00 in0.0 mm 0.00 in0.0 mm 0.00 in0.0 mm
05:41 PM 73.4°F23.0°C 56.6°F13.7°C 47% 1.6 mph NW2.6 kmh NW 3.1 mph5.0 kmh 29.88 in1011.9 mb 0.00 in0.0 mm 0.00 in0.0 mm 0.00 in0.0 mm
05:42 PM 73.6°F23.1°C 56.7°F13.7°C 47% 0.7 mph NW1.1 kmh NW 3.1 mph5.0 kmh 29.88 in1011.9 mb 0.00 in0.0 mm 0.00 in0.0 mm 0.00 in0.0 mm
05:47 PM 74.5°F23.6°C 56.6°F13.7°C 45% 1.6 mph SW2.6 kmh SW 3.1 mph5.0 kmh 29.88 in1011.9 mb 0.00 in0.0 mm 0.00 in0.0 mm 0.00 in0.0 mm
05:52 PM 74.3°F23.5°C 56.0°F13.3°C 44% 1.6 mph S2.6 kmh S 3.1 mph5.0 kmh 29.88 in1011.9 mb 0.00 in0.0 mm 0.00 in0.0 mm 0.00 in0.0 mm
05:56 PM 71.1°F21.7°C 53.1°F11.7°C 44% 2.2 mph SW3.5 kmh SW 3.8 mph6.1 kmh 29.88 in1011.9 mb 0.00 in0.0 mm 0.00 in0.0 mm 0.00 in0.0 mm
05:57 PM 71.8°F22.1°C 52.8°F11.6°C 42% 3.1 mph SW5.0 kmh SW 6.9 mph11.1 kmh 29.88 in1011.9 mb 0.00 in0.0 mm 0.00 in0.0 mm 0.00 in0.0 mm
06:01 PM 69.8°F21.0°C 53.8°F12.1°C 48% 1.6 mph SW2.6 kmh SW 3.1 mph5.0 kmh 29.88 in1011.9 mb 0.00 in0.0 mm 0.00 in0.0 mm 0.00 in0.0 mm
06:02 PM 69.6°F20.9°C 54.5°F12.5°C 50% 2.2 mph SW3.5 kmh SW 4.5 mph7.2 kmh 29.88 in1011.9 mb 0.00 in0.0 mm 0.00 in0.0 mm 0.00 in0.0 mm
06:07 PM 70.2°F21.2°C 54.5°F12.5°C 49% 0.7 mph S1.1 kmh S 2.2 mph3.5 kmh 29.88 in1011.9 mb 0.00 in0.0 mm 0.00 in0.0 mm 0.00 in0.0 mm
06:12 PM 71.8°F22.1°C 55.6°F13.1°C 48% 2.2 mph 3.5 kmh 3.8 mph6.1 kmh 29.88 in1011.9 mb 0.00 in0.0 mm 0.00 in0.0 mm 0.00 in0.0 mm
06:16 PM 73.4°F23.0°C 56.1°F13.4°C 46% 1.6 mph SW2.6 kmh SW 2.2 mph3.5 kmh 29.88 in1011.9 mb 0.00 in0.0 mm 0.00 in0.0 mm 0.00 in0.0 mm
06:17 PM 73.2°F22.9°C 56.4°F13.6°C 47% 1.6 mph W2.6 kmh W 3.1 mph5.0 kmh 29.88 in1011.9 mb 0.00 in0.0 mm 0.00 in0.0 mm 0.00 in0.0 mm
06:21 PM 73.2°F22.9°C 54.5°F12.5°C 43% 1.6 mph SW2.6 kmh SW 3.8 mph6.1 kmh 29.88 in1011.9 mb 0.00 in0.0 mm 0.00 in0.0 mm 0.00 in0.0 mm
06:22 PM 73.0°F22.8°C 54.9°F12.7°C 44% 1.6 mph S2.6 kmh S 3.1 mph5.0 kmh 29.88 in1011.9 mb 0.00 in0.0 mm 0.00 in0.0 mm 0.00 in0.0 mm
06:27 PM 73.8°F23.2°C 55.5°F13.1°C 44% 0.7 mph S1.1 kmh S 2.2 mph3.5 kmh 29.88 in1011.9 mb 0.00 in0.0 mm 0.00 in0.0 mm 0.00 in0.0 mm
06:32 PM 72.7°F22.6°C 54.1°F12.3°C 43% 0.7 mph SW1.1 kmh SW 2.2 mph3.5 kmh 29.88 in1011.9 mb 0.00 in0.0 mm 0.00 in0.0 mm 0.00 in0.0 mm
06:36 PM 72.3°F22.4°C 54.7°F12.6°C 45% 0.7 mph 1.1 kmh 1.6 mph2.6 kmh 29.88 in1011.9 mb 0.00 in0.0 mm 0.00 in0.0 mm 0.00 in0.0 mm
06:37 PM 72.3°F22.4°C 54.2°F12.3°C 44% 1.6 mph SW2.6 kmh SW 2.2 mph3.5 kmh 29.88 in1011.9 mb 0.00 in0.0 mm 0.00 in0.0 mm 0.00 in0.0 mm
06:41 PM 72.1°F22.3°C 54.5°F12.5°C 45% 3.1 mph NE5.0 kmh NE 5.4 mph8.7 kmh 29.88 in1011.9 mb 0.00 in0.0 mm 0.00 in0.0 mm 0.00 in0.0 mm
06:42 PM 72.1°F22.3°C 54.1°F12.3°C 44% 0.7 mph S1.1 kmh S 3.1 mph5.0 kmh 29.88 in1011.9 mb 0.00 in0.0 mm 0.00 in0.0 mm 0.00 in0.0 mm
06:47 PM 71.2°F21.8°C 54.2°F12.3°C 46% 2.2 mph NW3.5 kmh NW 3.1 mph5.0 kmh 29.88 in1011.9 mb 0.00 in0.0 mm 0.00 in0.0 mm 0.00 in0.0 mm
06:52 PM 69.8°F21.0°C 54.2°F12.3°C 49% 0.7 mph S1.1 kmh S 3.8 mph6.1 kmh 29.88 in1011.9 mb 0.00 in0.0 mm 0.00 in0.0 mm 0.00 in0.0 mm
06:56 PM 68.7°F20.4°C 53.6°F12.0°C 50% Calm Calm 0.7 mph1.1 kmh 29.88 in1011.9 mb 0.00 in0.0 mm 0.00 in0.0 mm 0.00 in0.0 mm
06:57 PM 68.7°F20.4°C 53.6°F12.0°C 50% 0.7 mph NW1.1 kmh NW 1.6 mph2.6 kmh 29.88 in1011.9 mb 0.00 in0.0 mm 0.00 in0.0 mm 0.00 in0.0 mm
07:01 PM 68.4°F20.2°C 53.7°F12.1°C 51% 0.7 mph SW1.1 kmh SW 1.6 mph2.6 kmh 29.88 in1011.9 mb 0.00 in0.0 mm 0.00 in0.0 mm 0.00 in0.0 mm
07:02 PM 68.4°F20.2°C 53.7°F12.1°C 51% 0.7 mph S1.1 kmh S 1.6 mph2.6 kmh 29.88 in1011.9 mb 0.00 in0.0 mm 0.00 in0.0 mm 0.00 in0.0 mm
07:07 PM 68.2°F20.1°C 53.2°F11.8°C 50% 3.1 mph S5.0 kmh S 4.5 mph7.2 kmh 29.89 in1012.2 mb 0.00 in0.0 mm 0.00 in0.0 mm 0.00 in0.0 mm
07:12 PM 67.1°F19.5°C 52.6°F11.4°C 51% 4.5 mph SW7.2 kmh SW 5.4 mph8.7 kmh 29.88 in1011.9 mb 0.00 in0.0 mm 0.00 in0.0 mm 0.00 in0.0 mm
07:16 PM 66.6°F19.2°C 52.9°F11.6°C 53% 1.6 mph SW2.6 kmh SW 3.1 mph5.0 kmh 29.88 in1011.9 mb 0.00 in0.0 mm 0.00 in0.0 mm 0.00 in0.0 mm
07:17 PM 66.6°F19.2°C 52.5°F11.4°C 52% 0.7 mph SW1.1 kmh SW 1.6 mph2.6 kmh 29.88 in1011.9 mb 0.00 in0.0 mm 0.00 in0.0 mm 0.00 in0.0 mm
07:21 PM 66.4°F19.1°C 53.1°F11.7°C 54% Calm Calm 1.6 mph2.6 kmh 29.88 in1011.9 mb 0.00 in0.0 mm 0.00 in0.0 mm 0.00 in0.0 mm
07:22 PM 66.2°F19.0°C 52.9°F11.6°C 54% 1.6 mph SW2.6 kmh SW 2.2 mph3.5 kmh 29.88 in1011.9 mb 0.00 in0.0 mm 0.00 in0.0 mm 0.00 in0.0 mm
07:27 PM 66.2°F19.0°C 52.6°F11.4°C 53% Calm Calm 0.7 mph1.1 kmh 29.88 in1011.9 mb 0.00 in0.0 mm 0.00 in0.0 mm 0.00 in0.0 mm
07:32 PM 66.0°F18.9°C 53.2°F11.8°C 55% 1.6 mph S2.6 kmh S 2.2 mph3.5 kmh 29.88 in1011.9 mb 0.00 in0.0 mm 0.00 in0.0 mm 0.00 in0.0 mm
07:36 PM 65.7°F18.7°C 52.8°F11.6°C 55% 2.2 mph NNW3.5 kmh NNW 3.1 mph5.0 kmh 29.89 in1012.2 mb 0.00 in0.0 mm 0.00 in0.0 mm 0.00 in0.0 mm
07:37 PM 65.7°F18.7°C 52.8°F11.6°C 55% 0.7 mph SW1.1 kmh SW 3.1 mph5.0 kmh 29.88 in1011.9 mb 0.00 in0.0 mm 0.00 in0.0 mm 0.00 in0.0 mm
07:41 PM 65.3°F18.5°C 52.9°F11.6°C 56% 1.6 mph SW2.6 kmh SW 2.2 mph3.5 kmh 29.89 in1012.2 mb 0.00 in0.0 mm 0.00 in0.0 mm 0.00 in0.0 mm
07:42 PM 65.1°F18.4°C 52.7°F11.5°C 56% 1.6 mph SW2.6 kmh SW 2.2 mph3.5 kmh 29.88 in1011.9 mb 0.00 in0.0 mm 0.00 in0.0 mm 0.00 in0.0 mm
07:47 PM 64.9°F18.3°C 52.5°F11.4°C 56% Calm Calm 1.6 mph2.6 kmh 29.89 in1012.2 mb 0.00 in0.0 mm 0.00 in0.0 mm 0.00 in0.0 mm
07:52 PM 64.8°F18.2°C 52.4°F11.3°C 56% 0.7 mph SW1.1 kmh SW 2.2 mph3.5 kmh 29.88 in1011.9 mb 0.00 in0.0 mm 0.00 in0.0 mm 0.00 in0.0 mm
07:56 PM 64.6°F18.1°C 52.6°F11.4°C 57% Calm Calm -- 29.88 in1011.9 mb 0.00 in0.0 mm 0.00 in0.0 mm 0.00 in0.0 mm
07:57 PM 64.6°F18.1°C 52.6°F11.4°C 57% Calm Calm -- 29.88 in1011.9 mb 0.00 in0.0 mm 0.00 in0.0 mm 0.00 in0.0 mm
08:01 PM 64.4°F18.0°C 52.4°F11.3°C 57% 1.6 mph SW2.6 kmh SW 2.2 mph3.5 kmh 29.89 in1012.2 mb 0.00 in0.0 mm 0.00 in0.0 mm 0.00 in0.0 mm
08:02 PM 64.4°F18.0°C 52.4°F11.3°C 57% 0.7 mph SW1.1 kmh SW 1.6 mph2.6 kmh 29.89 in1012.2 mb 0.00 in0.0 mm 0.00 in0.0 mm 0.00 in0.0 mm
08:07 PM 64.2°F17.9°C 52.6°F11.4°C 58% 0.7 mph SW1.1 kmh SW 1.6 mph2.6 kmh 29.89 in1012.2 mb 0.00 in0.0 mm 0.00 in0.0 mm 0.00 in0.0 mm
08:12 PM 64.0°F17.8°C 52.4°F11.3°C 58% Calm Calm -- 29.90 in1012.5 mb 0.00 in0.0 mm 0.00 in0.0 mm 0.00 in0.0 mm
08:16 PM 63.7°F17.6°C 52.4°F11.3°C 59% Calm Calm -- 29.89 in1012.2 mb 0.00 in0.0 mm 0.00 in0.0 mm 0.00 in0.0 mm
08:17 PM 63.7°F17.6°C 52.4°F11.3°C 59% Calm Calm -- 29.89 in1012.2 mb 0.00 in0.0 mm 0.00 in0.0 mm 0.00 in0.0 mm
08:21 PM 63.1°F17.3°C 51.9°F11.1°C 59% Calm Calm -- 29.89 in1012.2 mb 0.00 in0.0 mm 0.00 in0.0 mm 0.00 in0.0 mm
08:22 PM 63.1°F17.3°C 52.3°F11.3°C 60% Calm Calm -- 29.89 in1012.2 mb 0.00 in0.0 mm 0.00 in0.0 mm 0.00 in0.0 mm
08:27 PM 62.8°F17.1°C 51.9°F11.1°C 60% Calm Calm -- 29.89 in1012.2 mb 0.00 in0.0 mm 0.00 in0.0 mm 0.00 in0.0 mm
08:32 PM 62.2°F16.8°C 52.4°F11.3°C 63% Calm Calm -- 29.90 in1012.5 mb 0.00 in0.0 mm 0.00 in0.0 mm 0.00 in0.0 mm
08:36 PM 61.3°F16.3°C 52.2°F11.2°C 65% Calm Calm -- 29.90 in1012.5 mb 0.00 in0.0 mm 0.00 in0.0 mm 0.00 in0.0 mm
08:37 PM 61.5°F16.4°C 52.4°F11.3°C 65% Calm Calm -- 29.90 in1012.5 mb 0.00 in0.0 mm 0.00 in0.0 mm 0.00 in0.0 mm
08:41 PM 60.6°F15.9°C 52.5°F11.4°C 68% Calm Calm -- 29.89 in1012.2 mb 0.00 in0.0 mm 0.00 in0.0 mm 0.00 in0.0 mm
08:42 PM 60.4°F15.8°C 52.3°F11.3°C 68% Calm Calm -- 29.90 in1012.5 mb 0.00 in0.0 mm 0.00 in0.0 mm 0.00 in0.0 mm
08:47 PM 59.7°F15.4°C 52.2°F11.2°C 70% Calm Calm -- 29.90 in1012.5 mb 0.00 in0.0 mm 0.00 in0.0 mm 0.00 in0.0 mm
08:52 PM 59.2°F15.1°C 51.7°F10.9°C 70% Calm Calm -- 29.89 in1012.2 mb 0.00 in0.0 mm 0.00 in0.0 mm 0.00 in0.0 mm
08:56 PM 58.6°F14.8°C 51.8°F11.0°C 72% Calm Calm -- 29.90 in1012.5 mb 0.00 in0.0 mm 0.00 in0.0 mm 0.00 in0.0 mm
08:57 PM 58.8°F14.9°C 51.9°F11.1°C 72% Calm Calm 0.7 mph1.1 kmh 29.90 in1012.5 mb 0.00 in0.0 mm 0.00 in0.0 mm 0.00 in0.0 mm
09:01 PM 58.1°F14.5°C 51.8°F11.0°C 74% Calm Calm -- 29.90 in1012.5 mb 0.00 in0.0 mm 0.00 in0.0 mm 0.00 in0.0 mm
09:02 PM 57.9°F14.4°C 51.6°F10.9°C 74% Calm Calm -- 29.90 in1012.5 mb 0.00 in0.0 mm 0.00 in0.0 mm 0.00 in0.0 mm
09:07 PM 57.2°F14.0°C 51.2°F10.7°C 75% Calm Calm -- 29.90 in1012.5 mb 0.00 in0.0 mm 0.00 in0.0 mm 0.00 in0.0 mm
09:12 PM 56.8°F13.8°C 51.7°F10.9°C 78% Calm Calm -- 29.91 in1012.9 mb 0.00 in0.0 mm 0.00 in0.0 mm 0.00 in0.0 mm
09:16 PM 56.3°F13.5°C 51.7°F10.9°C 80% Calm Calm -- 29.90 in1012.5 mb 0.00 in0.0 mm 0.00 in0.0 mm 0.00 in0.0 mm
09:17 PM 56.5°F13.6°C 51.8°F11.0°C 80% Calm Calm -- 29.90 in1012.5 mb 0.00 in0.0 mm 0.00 in0.0 mm 0.00 in0.0 mm
09:21 PM 55.9°F13.3°C 51.6°F10.9°C 81% Calm Calm -- 29.91 in1012.9 mb 0.00 in0.0 mm 0.00 in0.0 mm 0.00 in0.0 mm
09:22 PM 55.9°F13.3°C 51.6°F10.9°C 81% Calm Calm -- 29.90 in1012.5 mb 0.00 in0.0 mm 0.00 in0.0 mm 0.00 in0.0 mm
09:27 PM 55.4°F13.0°C 51.3°F10.7°C 82% Calm Calm -- 29.90 in1012.5 mb 0.00 in0.0 mm 0.00 in0.0 mm 0.00 in0.0 mm
09:32 PM 55.0°F12.8°C 51.2°F10.7°C 83% Calm Calm -- 29.91 in1012.9 mb 0.00 in0.0 mm 0.00 in0.0 mm 0.00 in0.0 mm
09:36 PM 54.7°F12.6°C 51.3°F10.7°C 85% Calm Calm -- 29.91 in1012.9 mb 0.00 in0.0 mm 0.00 in0.0 mm 0.00 in0.0 mm
09:37 PM 54.7°F12.6°C 51.1°F10.6°C 84% Calm Calm -- 29.91 in1012.9 mb 0.00 in0.0 mm 0.00 in0.0 mm 0.00 in0.0 mm
09:41 PM 54.3°F12.4°C 51.0°F10.6°C 85% Calm Calm -- 29.91 in1012.9 mb 0.00 in0.0 mm 0.00 in0.0 mm 0.00 in0.0 mm
09:42 PM 54.1°F12.3°C 50.8°F10.4°C 85% Calm Calm -- 29.91 in1012.9 mb 0.00 in0.0 mm 0.00 in0.0 mm 0.00 in0.0 mm
09:47 PM 54.0°F12.2°C 51.1°F10.6°C 87% Calm Calm -- 29.91 in1012.9 mb 0.00 in0.0 mm 0.00 in0.0 mm 0.00 in0.0 mm
09:52 PM 53.6°F12.0°C 50.7°F10.4°C 87% Calm Calm -- 29.91 in1012.9 mb 0.00 in0.0 mm 0.00 in0.0 mm 0.00 in0.0 mm
09:56 PM 53.4°F11.9°C 50.8°F10.4°C 88% Calm Calm -- 29.91 in1012.9 mb 0.00 in0.0 mm 0.00 in0.0 mm 0.00 in0.0 mm
09:57 PM 53.4°F11.9°C 50.8°F10.4°C 88% Calm Calm -- 29.91 in1012.9 mb 0.00 in0.0 mm 0.00 in0.0 mm 0.00 in0.0 mm
10:01 PM 53.1°F11.7°C 50.7°F10.4°C 89% Calm Calm -- 29.91 in1012.9 mb 0.00 in0.0 mm 0.00 in0.0 mm 0.00 in0.0 mm
10:02 PM 53.1°F11.7°C 50.7°F10.4°C 89% Calm Calm -- 29.91 in1012.9 mb 0.00 in0.0 mm 0.00 in0.0 mm 0.00 in0.0 mm
10:07 PM 53.1°F11.7°C 50.7°F10.4°C 89% Calm Calm -- 29.91 in1012.9 mb 0.00 in0.0 mm 0.00 in0.0 mm 0.00 in0.0 mm
10:12 PM 52.7°F11.5°C 50.6°F10.3°C 90% Calm Calm -- 29.91 in1012.9 mb 0.00 in0.0 mm 0.00 in0.0 mm 0.00 in0.0 mm
10:16 PM 52.5°F11.4°C 50.4°F10.2°C 90% Calm Calm -- 29.92 in1013.2 mb 0.00 in0.0 mm 0.00 in0.0 mm 0.00 in0.0 mm
10:17 PM 52.7°F11.5°C 50.6°F10.3°C 90% Calm Calm -- 29.91 in1012.9 mb 0.00 in0.0 mm 0.00 in0.0 mm 0.00 in0.0 mm
10:21 PM 52.0°F11.1°C 49.8°F9.9°C 90% Calm Calm -- 29.91 in1012.9 mb 0.00 in0.0 mm 0.00 in0.0 mm 0.00 in0.0 mm
10:22 PM 52.0°F11.1°C 49.8°F9.9°C 90% Calm Calm -- 29.91 in1012.9 mb 0.00 in0.0 mm 0.00 in0.0 mm 0.00 in0.0 mm
10:27 PM 52.0°F11.1°C 49.8°F9.9°C 90% Calm Calm -- 29.91 in1012.9 mb 0.00 in0.0 mm 0.00 in0.0 mm 0.00 in0.0 mm
10:32 PM 51.6°F10.9°C 49.7°F9.8°C 91% Calm Calm -- 29.91 in1012.9 mb 0.00 in0.0 mm 0.00 in0.0 mm 0.00 in0.0 mm
10:36 PM 51.3°F10.7°C 49.6°F9.8°C 92% Calm Calm -- 29.91 in1012.9 mb 0.00 in0.0 mm 0.00 in0.0 mm 0.00 in0.0 mm
10:37 PM 51.3°F10.7°C 49.6°F9.8°C 92% Calm Calm -- 29.91 in1012.9 mb 0.00 in0.0 mm 0.00 in0.0 mm 0.00 in0.0 mm
10:41 PM 50.9°F10.5°C 49.2°F9.6°C 92% Calm Calm -- 29.91 in1012.9 mb 0.00 in0.0 mm 0.00 in0.0 mm 0.00 in0.0 mm
10:42 PM 50.9°F10.5°C 49.2°F9.6°C 92% Calm Calm -- 29.91 in1012.9 mb 0.00 in0.0 mm 0.00 in0.0 mm 0.00 in0.0 mm
10:47 PM 50.9°F10.5°C 49.4°F9.7°C 93% Calm Calm -- 29.91 in1012.9 mb 0.00 in0.0 mm 0.00 in0.0 mm 0.00 in0.0 mm
10:52 PM 50.7°F10.4°C 49.3°F9.6°C 93% Calm Calm -- 29.91 in1012.9 mb 0.00 in0.0 mm 0.00 in0.0 mm 0.00 in0.0 mm
10:56 PM 50.4°F10.2°C 48.9°F9.4°C 93% Calm Calm -- 29.91 in1012.9 mb 0.00 in0.0 mm 0.00 in0.0 mm 0.00 in0.0 mm
10:57 PM 50.5°F10.3°C 49.1°F9.5°C 93% Calm Calm -- 29.91 in1012.9 mb 0.00 in0.0 mm 0.00 in0.0 mm 0.00 in0.0 mm
11:01 PM 50.5°F10.3°C 49.3°F9.6°C 94% Calm Calm -- 29.91 in1012.9 mb 0.00 in0.0 mm 0.00 in0.0 mm 0.00 in0.0 mm
11:02 PM 50.5°F10.3°C 49.3°F9.6°C 94% Calm Calm -- 29.91 in1012.9 mb 0.00 in0.0 mm 0.00 in0.0 mm 0.00 in0.0 mm
11:07 PM 50.4°F10.2°C 49.1°F9.5°C 94% Calm Calm -- 29.92 in1013.2 mb 0.00 in0.0 mm 0.00 in0.0 mm 0.00 in0.0 mm
11:12 PM 50.4°F10.2°C 49.3°F9.6°C 95% Calm Calm -- 29.91 in1012.9 mb 0.00 in0.0 mm 0.00 in0.0 mm 0.00 in0.0 mm
11:16 PM 50.2°F10.1°C 49.1°F9.5°C 95% Calm Calm -- 29.91 in1012.9 mb 0.00 in0.0 mm 0.00 in0.0 mm 0.00 in0.0 mm
11:17 PM 50.2°F10.1°C 49.1°F9.5°C 95% Calm Calm -- 29.91 in1012.9 mb 0.00 in0.0 mm 0.00 in0.0 mm 0.00 in0.0 mm
11:21 PM 50.0°F10.0°C 48.8°F9.3°C 94% Calm Calm -- 29.92 in1013.2 mb 0.00 in0.0 mm 0.00 in0.0 mm 0.00 in0.0 mm
11:22 PM 50.0°F10.0°C 48.8°F9.3°C 94% Calm Calm -- 29.92 in1013.2 mb 0.00 in0.0 mm 0.00 in0.0 mm 0.00 in0.0 mm
11:27 PM 50.0°F10.0°C 49.0°F9.4°C 95% Calm Calm -- 29.92 in1013.2 mb 0.00 in0.0 mm 0.00 in0.0 mm 0.00 in0.0 mm
11:32 PM 49.6°F9.8°C 48.8°F9.3°C 96% Calm Calm -- 29.92 in1013.2 mb 0.00 in0.0 mm 0.00 in0.0 mm 0.00 in0.0 mm
11:36 PM 49.5°F9.7°C 48.6°F9.2°C 96% Calm Calm -- 29.92 in1013.2 mb 0.00 in0.0 mm 0.00 in0.0 mm 0.00 in0.0 mm
11:37 PM 49.5°F9.7°C 48.6°F9.2°C 96% Calm Calm -- 29.92 in1013.2 mb 0.00 in0.0 mm 0.00 in0.0 mm 0.00 in0.0 mm
11:41 PM 49.3°F9.6°C 48.5°F9.2°C 96% Calm Calm -- 29.92 in1013.2 mb 0.00 in0.0 mm 0.00 in0.0 mm 0.00 in0.0 mm
11:42 PM 49.3°F9.6°C 48.5°F9.2°C 96% Calm Calm -- 29.92 in1013.2 mb 0.00 in0.0 mm 0.00 in0.0 mm 0.00 in0.0 mm
11:47 PM 49.1°F9.5°C 48.3°F9.1°C 96% Calm Calm -- 29.92 in1013.2 mb 0.00 in0.0 mm 0.00 in0.0 mm 0.00 in0.0 mm
11:52 PM 48.9°F9.4°C 48.1°F8.9°C 96% Calm Calm -- 29.92 in1013.2 mb 0.00 in0.0 mm 0.00 in0.0 mm 0.00 in0.0 mm
11:56 PM 49.1°F9.5°C 48.3°F9.1°C 96% Calm Calm -- 29.92 in1013.2 mb 0.00 in0.0 mm 0.00 in0.0 mm 0.00 in0.0 mm
11:57 PM 49.1°F9.5°C 48.3°F9.1°C 96% Calm Calm -- 29.92 in1013.2 mb 0.00 in0.0 mm 0.00 in0.0 mm 0.00 in0.0 mm